<?xml version="1.0" encoding="UTF-8" standalone="no" ?>
<gpx xmlns="http://www.topografix.com/GPX/1/1" xmlns:xsi="http://www.w3.org/2001/XMLSchema-instance" xsi:schemaLocation="http://www.topografix.com/GPX/1/1 http://www.topografix.com/GPX/1/1/gpx.xsd" version="1.1" creator="VisuGPX - https://www.visugpx.com">
  <metadata>
    <name>Quatre Termes</name>
  </metadata>
  <trk>
    <name><![CDATA[Quatre Termes]]></name>
    <trkseg>
      <trkpt lat="42.90967" lon="0.18013">
        <ele>1732</ele>
        <time>2012-04-22T05:16:24Z</time>
      </trkpt>
      <trkpt lat="42.90967" lon="0.18011">
        <ele>1730</ele>
        <time>2012-04-22T05:16:51Z</time>
      </trkpt>
      <trkpt lat="42.90967" lon="0.18015">
        <ele>1730</ele>
        <time>2012-04-22T05:17:04Z</time>
      </trkpt>
      <trkpt lat="42.90959" lon="0.18011">
        <ele>1728</ele>
        <time>2012-04-22T05:17:17Z</time>
      </trkpt>
      <trkpt lat="42.90959" lon="0.18012">
        <ele>1724</ele>
        <time>2012-04-22T05:17:39Z</time>
      </trkpt>
      <trkpt lat="42.90958" lon="0.1801">
        <ele>1722</ele>
        <time>2012-04-22T05:18:15Z</time>
      </trkpt>
      <trkpt lat="42.90959" lon="0.18008">
        <ele>1722</ele>
        <time>2012-04-22T05:18:32Z</time>
      </trkpt>
      <trkpt lat="42.90955" lon="0.18001">
        <ele>1722</ele>
        <time>2012-04-22T05:18:40Z</time>
      </trkpt>
      <trkpt lat="42.90953" lon="0.18002">
        <ele>1723</ele>
        <time>2012-04-22T05:18:45Z</time>
      </trkpt>
      <trkpt lat="42.90946" lon="0.18011">
        <ele>1724</ele>
        <time>2012-04-22T05:18:54Z</time>
      </trkpt>
      <trkpt lat="42.90938" lon="0.18033">
        <ele>1725</ele>
        <time>2012-04-22T05:19:06Z</time>
      </trkpt>
      <trkpt lat="42.90935" lon="0.18038">
        <ele>1725</ele>
        <time>2012-04-22T05:19:10Z</time>
      </trkpt>
      <trkpt lat="42.90933" lon="0.1804">
        <ele>1724</ele>
        <time>2012-04-22T05:19:12Z</time>
      </trkpt>
      <trkpt lat="42.90928" lon="0.18048">
        <ele>1724</ele>
        <time>2012-04-22T05:19:19Z</time>
      </trkpt>
      <trkpt lat="42.90925" lon="0.18051">
        <ele>1724</ele>
        <time>2012-04-22T05:19:42Z</time>
      </trkpt>
      <trkpt lat="42.90924" lon="0.18049">
        <ele>1725</ele>
        <time>2012-04-22T05:19:48Z</time>
      </trkpt>
      <trkpt lat="42.9092" lon="0.1805">
        <ele>1724</ele>
        <time>2012-04-22T05:19:53Z</time>
      </trkpt>
      <trkpt lat="42.90918" lon="0.1805">
        <ele>1724</ele>
        <time>2012-04-22T05:19:55Z</time>
      </trkpt>
      <trkpt lat="42.90906" lon="0.18051">
        <ele>1726</ele>
        <time>2012-04-22T05:20:09Z</time>
      </trkpt>
      <trkpt lat="42.909" lon="0.18053">
        <ele>1727</ele>
        <time>2012-04-22T05:20:16Z</time>
      </trkpt>
      <trkpt lat="42.90897" lon="0.1806">
        <ele>1729</ele>
        <time>2012-04-22T05:20:23Z</time>
      </trkpt>
      <trkpt lat="42.90895" lon="0.18064">
        <ele>1729</ele>
        <time>2012-04-22T05:20:27Z</time>
      </trkpt>
      <trkpt lat="42.90895" lon="0.18081">
        <ele>1730</ele>
        <time>2012-04-22T05:20:43Z</time>
      </trkpt>
      <trkpt lat="42.90896" lon="0.18089">
        <ele>1732</ele>
        <time>2012-04-22T05:20:51Z</time>
      </trkpt>
      <trkpt lat="42.90893" lon="0.18097">
        <ele>1734</ele>
        <time>2012-04-22T05:21:05Z</time>
      </trkpt>
      <trkpt lat="42.90892" lon="0.18099">
        <ele>1733</ele>
        <time>2012-04-22T05:21:07Z</time>
      </trkpt>
      <trkpt lat="42.90885" lon="0.18108">
        <ele>1734</ele>
        <time>2012-04-22T05:21:17Z</time>
      </trkpt>
      <trkpt lat="42.90882" lon="0.18121">
        <ele>1736</ele>
        <time>2012-04-22T05:21:29Z</time>
      </trkpt>
      <trkpt lat="42.90879" lon="0.18133">
        <ele>1736</ele>
        <time>2012-04-22T05:21:44Z</time>
      </trkpt>
      <trkpt lat="42.90878" lon="0.18135">
        <ele>1736</ele>
        <time>2012-04-22T05:21:46Z</time>
      </trkpt>
      <trkpt lat="42.9087" lon="0.18145">
        <ele>1740</ele>
        <time>2012-04-22T05:22:02Z</time>
      </trkpt>
      <trkpt lat="42.90869" lon="0.18144">
        <ele>1740</ele>
        <time>2012-04-22T05:22:03Z</time>
      </trkpt>
      <trkpt lat="42.90865" lon="0.18143">
        <ele>1740</ele>
        <time>2012-04-22T05:22:08Z</time>
      </trkpt>
      <trkpt lat="42.90863" lon="0.18144">
        <ele>1740</ele>
        <time>2012-04-22T05:22:10Z</time>
      </trkpt>
      <trkpt lat="42.9086" lon="0.18143">
        <ele>1739</ele>
        <time>2012-04-22T05:22:13Z</time>
      </trkpt>
      <trkpt lat="42.90851" lon="0.18141">
        <ele>1738</ele>
        <time>2012-04-22T05:22:27Z</time>
      </trkpt>
      <trkpt lat="42.9085" lon="0.1814">
        <ele>1738</ele>
        <time>2012-04-22T05:22:28Z</time>
      </trkpt>
      <trkpt lat="42.90848" lon="0.18139">
        <ele>1739</ele>
        <time>2012-04-22T05:22:31Z</time>
      </trkpt>
      <trkpt lat="42.90843" lon="0.1814">
        <ele>1741</ele>
        <time>2012-04-22T05:22:37Z</time>
      </trkpt>
      <trkpt lat="42.90839" lon="0.18141">
        <ele>1742</ele>
        <time>2012-04-22T05:22:41Z</time>
      </trkpt>
      <trkpt lat="42.90836" lon="0.18139">
        <ele>1743</ele>
        <time>2012-04-22T05:22:45Z</time>
      </trkpt>
      <trkpt lat="42.90828" lon="0.1814">
        <ele>1748</ele>
        <time>2012-04-22T05:23:01Z</time>
      </trkpt>
      <trkpt lat="42.90822" lon="0.18139">
        <ele>1747</ele>
        <time>2012-04-22T05:23:12Z</time>
      </trkpt>
      <trkpt lat="42.90818" lon="0.18138">
        <ele>1747</ele>
        <time>2012-04-22T05:23:17Z</time>
      </trkpt>
      <trkpt lat="42.90815" lon="0.18138">
        <ele>1748</ele>
        <time>2012-04-22T05:23:20Z</time>
      </trkpt>
      <trkpt lat="42.9081" lon="0.18141">
        <ele>1749</ele>
        <time>2012-04-22T05:23:25Z</time>
      </trkpt>
      <trkpt lat="42.90804" lon="0.18146">
        <ele>1751</ele>
        <time>2012-04-22T05:23:39Z</time>
      </trkpt>
      <trkpt lat="42.90803" lon="0.18146">
        <ele>1751</ele>
        <time>2012-04-22T05:23:40Z</time>
      </trkpt>
      <trkpt lat="42.90798" lon="0.18135">
        <ele>1750</ele>
        <time>2012-04-22T05:23:49Z</time>
      </trkpt>
      <trkpt lat="42.90795" lon="0.18128">
        <ele>1753</ele>
        <time>2012-04-22T05:24:04Z</time>
      </trkpt>
      <trkpt lat="42.9079" lon="0.18119">
        <ele>1756</ele>
        <time>2012-04-22T05:24:19Z</time>
      </trkpt>
      <trkpt lat="42.90783" lon="0.18107">
        <ele>1759</ele>
        <time>2012-04-22T05:24:36Z</time>
      </trkpt>
      <trkpt lat="42.90775" lon="0.18102">
        <ele>1762</ele>
        <time>2012-04-22T05:24:53Z</time>
      </trkpt>
      <trkpt lat="42.90768" lon="0.181">
        <ele>1766</ele>
        <time>2012-04-22T05:25:06Z</time>
      </trkpt>
      <trkpt lat="42.90764" lon="0.18102">
        <ele>1768</ele>
        <time>2012-04-22T05:25:18Z</time>
      </trkpt>
      <trkpt lat="42.9076" lon="0.18103">
        <ele>1769</ele>
        <time>2012-04-22T05:25:25Z</time>
      </trkpt>
      <trkpt lat="42.90749" lon="0.18106">
        <ele>1769</ele>
        <time>2012-04-22T05:25:42Z</time>
      </trkpt>
      <trkpt lat="42.90748" lon="0.18106">
        <ele>1769</ele>
        <time>2012-04-22T05:25:47Z</time>
      </trkpt>
      <trkpt lat="42.90745" lon="0.18104">
        <ele>1769</ele>
        <time>2012-04-22T05:25:50Z</time>
      </trkpt>
      <trkpt lat="42.90736" lon="0.18098">
        <ele>1771</ele>
        <time>2012-04-22T05:26:07Z</time>
      </trkpt>
      <trkpt lat="42.90735" lon="0.18098">
        <ele>1771</ele>
        <time>2012-04-22T05:26:08Z</time>
      </trkpt>
      <trkpt lat="42.90728" lon="0.18092">
        <ele>1773</ele>
        <time>2012-04-22T05:26:17Z</time>
      </trkpt>
      <trkpt lat="42.90721" lon="0.18086">
        <ele>1779</ele>
        <time>2012-04-22T05:26:32Z</time>
      </trkpt>
      <trkpt lat="42.90717" lon="0.18081">
        <ele>1781</ele>
        <time>2012-04-22T05:26:47Z</time>
      </trkpt>
      <trkpt lat="42.90712" lon="0.18074">
        <ele>1782</ele>
        <time>2012-04-22T05:26:58Z</time>
      </trkpt>
      <trkpt lat="42.90709" lon="0.18064">
        <ele>1784</ele>
        <time>2012-04-22T05:27:21Z</time>
      </trkpt>
      <trkpt lat="42.90709" lon="0.1806">
        <ele>1786</ele>
        <time>2012-04-22T05:27:28Z</time>
      </trkpt>
      <trkpt lat="42.90709" lon="0.18056">
        <ele>1787</ele>
        <time>2012-04-22T05:27:37Z</time>
      </trkpt>
      <trkpt lat="42.90708" lon="0.18055">
        <ele>1787</ele>
        <time>2012-04-22T05:27:39Z</time>
      </trkpt>
      <trkpt lat="42.90705" lon="0.18056">
        <ele>1791</ele>
        <time>2012-04-22T05:27:54Z</time>
      </trkpt>
      <trkpt lat="42.90699" lon="0.18053">
        <ele>1790</ele>
        <time>2012-04-22T05:28:09Z</time>
      </trkpt>
      <trkpt lat="42.90698" lon="0.18054">
        <ele>1790</ele>
        <time>2012-04-22T05:28:13Z</time>
      </trkpt>
      <trkpt lat="42.90692" lon="0.18058">
        <ele>1794</ele>
        <time>2012-04-22T05:28:27Z</time>
      </trkpt>
      <trkpt lat="42.90687" lon="0.18062">
        <ele>1799</ele>
        <time>2012-04-22T05:28:52Z</time>
      </trkpt>
      <trkpt lat="42.90684" lon="0.18065">
        <ele>1799</ele>
        <time>2012-04-22T05:28:59Z</time>
      </trkpt>
      <trkpt lat="42.90681" lon="0.1806">
        <ele>1801</ele>
        <time>2012-04-22T05:29:08Z</time>
      </trkpt>
      <trkpt lat="42.90677" lon="0.18054">
        <ele>1803</ele>
        <time>2012-04-22T05:29:14Z</time>
      </trkpt>
      <trkpt lat="42.90674" lon="0.18054">
        <ele>1805</ele>
        <time>2012-04-22T05:29:25Z</time>
      </trkpt>
      <trkpt lat="42.90673" lon="0.18055">
        <ele>1805</ele>
        <time>2012-04-22T05:29:27Z</time>
      </trkpt>
      <trkpt lat="42.90669" lon="0.18058">
        <ele>1806</ele>
        <time>2012-04-22T05:29:42Z</time>
      </trkpt>
      <trkpt lat="42.90667" lon="0.18058">
        <ele>1806</ele>
        <time>2012-04-22T05:29:45Z</time>
      </trkpt>
      <trkpt lat="42.90661" lon="0.18054">
        <ele>1806</ele>
        <time>2012-04-22T05:29:51Z</time>
      </trkpt>
      <trkpt lat="42.90657" lon="0.18052">
        <ele>1807</ele>
        <time>2012-04-22T05:30:02Z</time>
      </trkpt>
      <trkpt lat="42.90653" lon="0.18052">
        <ele>1810</ele>
        <time>2012-04-22T05:30:08Z</time>
      </trkpt>
      <trkpt lat="42.90646" lon="0.18054">
        <ele>1811</ele>
        <time>2012-04-22T05:30:21Z</time>
      </trkpt>
      <trkpt lat="42.90644" lon="0.18055">
        <ele>1811</ele>
        <time>2012-04-22T05:30:23Z</time>
      </trkpt>
      <trkpt lat="42.90642" lon="0.18056">
        <ele>1812</ele>
        <time>2012-04-22T05:30:26Z</time>
      </trkpt>
      <trkpt lat="42.90632" lon="0.18057">
        <ele>1815</ele>
        <time>2012-04-22T05:30:39Z</time>
      </trkpt>
      <trkpt lat="42.90631" lon="0.18056">
        <ele>1815</ele>
        <time>2012-04-22T05:30:40Z</time>
      </trkpt>
      <trkpt lat="42.90619" lon="0.18057">
        <ele>1819</ele>
        <time>2012-04-22T05:30:57Z</time>
      </trkpt>
      <trkpt lat="42.90613" lon="0.18058">
        <ele>1820</ele>
        <time>2012-04-22T05:31:14Z</time>
      </trkpt>
      <trkpt lat="42.90605" lon="0.18059">
        <ele>1824</ele>
        <time>2012-04-22T05:31:24Z</time>
      </trkpt>
      <trkpt lat="42.90593" lon="0.18064">
        <ele>1824</ele>
        <time>2012-04-22T05:31:38Z</time>
      </trkpt>
      <trkpt lat="42.90584" lon="0.18064">
        <ele>1824</ele>
        <time>2012-04-22T05:31:52Z</time>
      </trkpt>
      <trkpt lat="42.90573" lon="0.18057">
        <ele>1827</ele>
        <time>2012-04-22T05:32:17Z</time>
      </trkpt>
      <trkpt lat="42.90564" lon="0.18054">
        <ele>1829</ele>
        <time>2012-04-22T05:32:34Z</time>
      </trkpt>
      <trkpt lat="42.9056" lon="0.18054">
        <ele>1829</ele>
        <time>2012-04-22T05:32:38Z</time>
      </trkpt>
      <trkpt lat="42.90553" lon="0.18043">
        <ele>1830</ele>
        <time>2012-04-22T05:32:56Z</time>
      </trkpt>
      <trkpt lat="42.90549" lon="0.18043">
        <ele>1830</ele>
        <time>2012-04-22T05:33:00Z</time>
      </trkpt>
      <trkpt lat="42.90543" lon="0.18043">
        <ele>1832</ele>
        <time>2012-04-22T05:33:11Z</time>
      </trkpt>
      <trkpt lat="42.90535" lon="0.18047">
        <ele>1834</ele>
        <time>2012-04-22T05:33:23Z</time>
      </trkpt>
      <trkpt lat="42.90532" lon="0.18052">
        <ele>1836</ele>
        <time>2012-04-22T05:33:35Z</time>
      </trkpt>
      <trkpt lat="42.90529" lon="0.18049">
        <ele>1839</ele>
        <time>2012-04-22T05:33:46Z</time>
      </trkpt>
      <trkpt lat="42.90528" lon="0.18038">
        <ele>1842</ele>
        <time>2012-04-22T05:33:59Z</time>
      </trkpt>
      <trkpt lat="42.90529" lon="0.18035">
        <ele>1842</ele>
        <time>2012-04-22T05:34:02Z</time>
      </trkpt>
      <trkpt lat="42.9053" lon="0.1803">
        <ele>1843</ele>
        <time>2012-04-22T05:34:09Z</time>
      </trkpt>
      <trkpt lat="42.90533" lon="0.18016">
        <ele>1844</ele>
        <time>2012-04-22T05:34:27Z</time>
      </trkpt>
      <trkpt lat="42.90529" lon="0.18007">
        <ele>1846</ele>
        <time>2012-04-22T05:34:51Z</time>
      </trkpt>
      <trkpt lat="42.9052" lon="0.18012">
        <ele>1847</ele>
        <time>2012-04-22T05:35:07Z</time>
      </trkpt>
      <trkpt lat="42.90512" lon="0.18019">
        <ele>1850</ele>
        <time>2012-04-22T05:35:21Z</time>
      </trkpt>
      <trkpt lat="42.90509" lon="0.18024">
        <ele>1853</ele>
        <time>2012-04-22T05:35:33Z</time>
      </trkpt>
      <trkpt lat="42.90501" lon="0.18034">
        <ele>1855</ele>
        <time>2012-04-22T05:35:53Z</time>
      </trkpt>
      <trkpt lat="42.90499" lon="0.18039">
        <ele>1857</ele>
        <time>2012-04-22T05:36:06Z</time>
      </trkpt>
      <trkpt lat="42.90499" lon="0.18036">
        <ele>1857</ele>
        <time>2012-04-22T05:36:11Z</time>
      </trkpt>
      <trkpt lat="42.90498" lon="0.18033">
        <ele>1858</ele>
        <time>2012-04-22T05:36:14Z</time>
      </trkpt>
      <trkpt lat="42.905" lon="0.1802">
        <ele>1861</ele>
        <time>2012-04-22T05:36:31Z</time>
      </trkpt>
      <trkpt lat="42.905" lon="0.18019">
        <ele>1861</ele>
        <time>2012-04-22T05:36:32Z</time>
      </trkpt>
      <trkpt lat="42.90502" lon="0.18014">
        <ele>1863</ele>
        <time>2012-04-22T05:36:40Z</time>
      </trkpt>
      <trkpt lat="42.90503" lon="0.18013">
        <ele>1864</ele>
        <time>2012-04-22T05:36:42Z</time>
      </trkpt>
      <trkpt lat="42.90506" lon="0.17998">
        <ele>1867</ele>
        <time>2012-04-22T05:37:00Z</time>
      </trkpt>
      <trkpt lat="42.90511" lon="0.17985">
        <ele>1868</ele>
        <time>2012-04-22T05:37:16Z</time>
      </trkpt>
      <trkpt lat="42.9051" lon="0.17982">
        <ele>1869</ele>
        <time>2012-04-22T05:37:31Z</time>
      </trkpt>
      <trkpt lat="42.90509" lon="0.17983">
        <ele>1870</ele>
        <time>2012-04-22T05:37:34Z</time>
      </trkpt>
      <trkpt lat="42.90501" lon="0.17987">
        <ele>1870</ele>
        <time>2012-04-22T05:37:47Z</time>
      </trkpt>
      <trkpt lat="42.90496" lon="0.1799">
        <ele>1869</ele>
        <time>2012-04-22T05:37:58Z</time>
      </trkpt>
      <trkpt lat="42.90494" lon="0.17994">
        <ele>1869</ele>
        <time>2012-04-22T05:38:05Z</time>
      </trkpt>
      <trkpt lat="42.90489" lon="0.18">
        <ele>1870</ele>
        <time>2012-04-22T05:38:16Z</time>
      </trkpt>
      <trkpt lat="42.90481" lon="0.18008">
        <ele>1870</ele>
        <time>2012-04-22T05:38:32Z</time>
      </trkpt>
      <trkpt lat="42.9048" lon="0.18011">
        <ele>1871</ele>
        <time>2012-04-22T05:38:37Z</time>
      </trkpt>
      <trkpt lat="42.90472" lon="0.18021">
        <ele>1872</ele>
        <time>2012-04-22T05:38:54Z</time>
      </trkpt>
      <trkpt lat="42.90471" lon="0.18013">
        <ele>1876</ele>
        <time>2012-04-22T05:39:16Z</time>
      </trkpt>
      <trkpt lat="42.90474" lon="0.18003">
        <ele>1879</ele>
        <time>2012-04-22T05:39:30Z</time>
      </trkpt>
      <trkpt lat="42.90474" lon="0.17999">
        <ele>1879</ele>
        <time>2012-04-22T05:39:34Z</time>
      </trkpt>
      <trkpt lat="42.90473" lon="0.17995">
        <ele>1879</ele>
        <time>2012-04-22T05:39:37Z</time>
      </trkpt>
      <trkpt lat="42.90475" lon="0.17987">
        <ele>1880</ele>
        <time>2012-04-22T05:39:45Z</time>
      </trkpt>
      <trkpt lat="42.90477" lon="0.17974">
        <ele>1881</ele>
        <time>2012-04-22T05:39:59Z</time>
      </trkpt>
      <trkpt lat="42.90478" lon="0.17971">
        <ele>1882</ele>
        <time>2012-04-22T05:40:06Z</time>
      </trkpt>
      <trkpt lat="42.9048" lon="0.17962">
        <ele>1884</ele>
        <time>2012-04-22T05:40:22Z</time>
      </trkpt>
      <trkpt lat="42.90479" lon="0.17954">
        <ele>1887</ele>
        <time>2012-04-22T05:40:38Z</time>
      </trkpt>
      <trkpt lat="42.90476" lon="0.17948">
        <ele>1888</ele>
        <time>2012-04-22T05:40:49Z</time>
      </trkpt>
      <trkpt lat="42.9047" lon="0.17939">
        <ele>1890</ele>
        <time>2012-04-22T05:41:05Z</time>
      </trkpt>
      <trkpt lat="42.90462" lon="0.17928">
        <ele>1892</ele>
        <time>2012-04-22T05:41:28Z</time>
      </trkpt>
      <trkpt lat="42.90461" lon="0.17928">
        <ele>1892</ele>
        <time>2012-04-22T05:41:32Z</time>
      </trkpt>
      <trkpt lat="42.90454" lon="0.17924">
        <ele>1893</ele>
        <time>2012-04-22T05:41:43Z</time>
      </trkpt>
      <trkpt lat="42.90446" lon="0.17917">
        <ele>1896</ele>
        <time>2012-04-22T05:41:55Z</time>
      </trkpt>
      <trkpt lat="42.90441" lon="0.1791">
        <ele>1898</ele>
        <time>2012-04-22T05:42:06Z</time>
      </trkpt>
      <trkpt lat="42.90434" lon="0.17894">
        <ele>1899</ele>
        <time>2012-04-22T05:42:20Z</time>
      </trkpt>
      <trkpt lat="42.90436" lon="0.17906">
        <ele>1897</ele>
        <time>2012-04-22T05:42:53Z</time>
      </trkpt>
      <trkpt lat="42.90436" lon="0.17916">
        <ele>1896</ele>
        <time>2012-04-22T05:43:06Z</time>
      </trkpt>
      <trkpt lat="42.90437" lon="0.1793">
        <ele>1897</ele>
        <time>2012-04-22T05:43:23Z</time>
      </trkpt>
      <trkpt lat="42.90438" lon="0.17941">
        <ele>1900</ele>
        <time>2012-04-22T05:43:38Z</time>
      </trkpt>
      <trkpt lat="42.90438" lon="0.17947">
        <ele>1901</ele>
        <time>2012-04-22T05:44:09Z</time>
      </trkpt>
      <trkpt lat="42.90434" lon="0.17961">
        <ele>1903</ele>
        <time>2012-04-22T05:44:23Z</time>
      </trkpt>
      <trkpt lat="42.90433" lon="0.17964">
        <ele>1903</ele>
        <time>2012-04-22T05:44:26Z</time>
      </trkpt>
      <trkpt lat="42.9043" lon="0.17973">
        <ele>1904</ele>
        <time>2012-04-22T05:44:39Z</time>
      </trkpt>
      <trkpt lat="42.90431" lon="0.1797">
        <ele>1905</ele>
        <time>2012-04-22T05:45:04Z</time>
      </trkpt>
      <trkpt lat="42.90427" lon="0.1796">
        <ele>1907</ele>
        <time>2012-04-22T05:45:18Z</time>
      </trkpt>
      <trkpt lat="42.90421" lon="0.17948">
        <ele>1911</ele>
        <time>2012-04-22T05:45:33Z</time>
      </trkpt>
      <trkpt lat="42.90413" lon="0.17937">
        <ele>1916</ele>
        <time>2012-04-22T05:45:46Z</time>
      </trkpt>
      <trkpt lat="42.90409" lon="0.1793">
        <ele>1917</ele>
        <time>2012-04-22T05:45:57Z</time>
      </trkpt>
      <trkpt lat="42.90405" lon="0.17921">
        <ele>1919</ele>
        <time>2012-04-22T05:46:12Z</time>
      </trkpt>
      <trkpt lat="42.90399" lon="0.1791">
        <ele>1920</ele>
        <time>2012-04-22T05:46:26Z</time>
      </trkpt>
      <trkpt lat="42.90395" lon="0.17897">
        <ele>1922</ele>
        <time>2012-04-22T05:46:36Z</time>
      </trkpt>
      <trkpt lat="42.90395" lon="0.17891">
        <ele>1924</ele>
        <time>2012-04-22T05:46:41Z</time>
      </trkpt>
      <trkpt lat="42.90398" lon="0.17878">
        <ele>1928</ele>
        <time>2012-04-22T05:46:57Z</time>
      </trkpt>
      <trkpt lat="42.90398" lon="0.17872">
        <ele>1929</ele>
        <time>2012-04-22T05:47:05Z</time>
      </trkpt>
      <trkpt lat="42.90397" lon="0.17869">
        <ele>1931</ele>
        <time>2012-04-22T05:47:10Z</time>
      </trkpt>
      <trkpt lat="42.90395" lon="0.17872">
        <ele>1932</ele>
        <time>2012-04-22T05:47:46Z</time>
      </trkpt>
      <trkpt lat="42.90396" lon="0.17874">
        <ele>1932</ele>
        <time>2012-04-22T05:49:43Z</time>
      </trkpt>
      <trkpt lat="42.90389" lon="0.17888">
        <ele>1934</ele>
        <time>2012-04-22T05:50:07Z</time>
      </trkpt>
      <trkpt lat="42.90388" lon="0.17891">
        <ele>1935</ele>
        <time>2012-04-22T05:50:17Z</time>
      </trkpt>
      <trkpt lat="42.90383" lon="0.17903">
        <ele>1936</ele>
        <time>2012-04-22T05:50:37Z</time>
      </trkpt>
      <trkpt lat="42.90376" lon="0.17915">
        <ele>1940</ele>
        <time>2012-04-22T05:50:55Z</time>
      </trkpt>
      <trkpt lat="42.90368" lon="0.17921">
        <ele>1941</ele>
        <time>2012-04-22T05:51:09Z</time>
      </trkpt>
      <trkpt lat="42.90359" lon="0.17926">
        <ele>1943</ele>
        <time>2012-04-22T05:51:34Z</time>
      </trkpt>
      <trkpt lat="42.90353" lon="0.17934">
        <ele>1945</ele>
        <time>2012-04-22T05:51:51Z</time>
      </trkpt>
      <trkpt lat="42.90353" lon="0.17936">
        <ele>1945</ele>
        <time>2012-04-22T05:51:53Z</time>
      </trkpt>
      <trkpt lat="42.90354" lon="0.17944">
        <ele>1947</ele>
        <time>2012-04-22T05:52:05Z</time>
      </trkpt>
      <trkpt lat="42.90357" lon="0.17956">
        <ele>1949</ele>
        <time>2012-04-22T05:52:14Z</time>
      </trkpt>
      <trkpt lat="42.90359" lon="0.17969">
        <ele>1950</ele>
        <time>2012-04-22T05:52:28Z</time>
      </trkpt>
      <trkpt lat="42.90356" lon="0.17977">
        <ele>1951</ele>
        <time>2012-04-22T05:52:35Z</time>
      </trkpt>
      <trkpt lat="42.90349" lon="0.17986">
        <ele>1953</ele>
        <time>2012-04-22T05:52:51Z</time>
      </trkpt>
      <trkpt lat="42.90345" lon="0.17989">
        <ele>1954</ele>
        <time>2012-04-22T05:52:57Z</time>
      </trkpt>
      <trkpt lat="42.90334" lon="0.17998">
        <ele>1958</ele>
        <time>2012-04-22T05:53:11Z</time>
      </trkpt>
      <trkpt lat="42.90332" lon="0.17997">
        <ele>1958</ele>
        <time>2012-04-22T05:53:14Z</time>
      </trkpt>
      <trkpt lat="42.90327" lon="0.18004">
        <ele>1961</ele>
        <time>2012-04-22T05:53:27Z</time>
      </trkpt>
      <trkpt lat="42.90317" lon="0.18015">
        <ele>1960</ele>
        <time>2012-04-22T05:53:44Z</time>
      </trkpt>
      <trkpt lat="42.90312" lon="0.18015">
        <ele>1960</ele>
        <time>2012-04-22T05:53:49Z</time>
      </trkpt>
      <trkpt lat="42.90307" lon="0.18016">
        <ele>1960</ele>
        <time>2012-04-22T05:54:05Z</time>
      </trkpt>
      <trkpt lat="42.90306" lon="0.18016">
        <ele>1960</ele>
        <time>2012-04-22T05:54:13Z</time>
      </trkpt>
      <trkpt lat="42.90304" lon="0.18019">
        <ele>1960</ele>
        <time>2012-04-22T05:54:16Z</time>
      </trkpt>
      <trkpt lat="42.903" lon="0.1802">
        <ele>1961</ele>
        <time>2012-04-22T05:54:20Z</time>
      </trkpt>
      <trkpt lat="42.90288" lon="0.18013">
        <ele>1966</ele>
        <time>2012-04-22T05:54:36Z</time>
      </trkpt>
      <trkpt lat="42.90278" lon="0.18022">
        <ele>1969</ele>
        <time>2012-04-22T05:54:52Z</time>
      </trkpt>
      <trkpt lat="42.9027" lon="0.18031">
        <ele>1970</ele>
        <time>2012-04-22T05:55:08Z</time>
      </trkpt>
      <trkpt lat="42.90264" lon="0.18037">
        <ele>1973</ele>
        <time>2012-04-22T05:55:22Z</time>
      </trkpt>
      <trkpt lat="42.90257" lon="0.18042">
        <ele>1971</ele>
        <time>2012-04-22T05:55:35Z</time>
      </trkpt>
      <trkpt lat="42.90258" lon="0.18043">
        <ele>1973</ele>
        <time>2012-04-22T05:56:10Z</time>
      </trkpt>
      <trkpt lat="42.90255" lon="0.18046">
        <ele>1972</ele>
        <time>2012-04-22T05:56:22Z</time>
      </trkpt>
      <trkpt lat="42.90247" lon="0.18047">
        <ele>1970</ele>
        <time>2012-04-22T05:56:43Z</time>
      </trkpt>
      <trkpt lat="42.90246" lon="0.18047">
        <ele>1970</ele>
        <time>2012-04-22T05:56:44Z</time>
      </trkpt>
      <trkpt lat="42.90244" lon="0.18049">
        <ele>1969</ele>
        <time>2012-04-22T05:56:46Z</time>
      </trkpt>
      <trkpt lat="42.90237" lon="0.18054">
        <ele>1968</ele>
        <time>2012-04-22T05:56:55Z</time>
      </trkpt>
      <trkpt lat="42.90232" lon="0.18058">
        <ele>1966</ele>
        <time>2012-04-22T05:57:08Z</time>
      </trkpt>
      <trkpt lat="42.90231" lon="0.18061">
        <ele>1967</ele>
        <time>2012-04-22T05:57:13Z</time>
      </trkpt>
      <trkpt lat="42.90225" lon="0.18066">
        <ele>1967</ele>
        <time>2012-04-22T05:57:31Z</time>
      </trkpt>
      <trkpt lat="42.90219" lon="0.18073">
        <ele>1969</ele>
        <time>2012-04-22T05:57:38Z</time>
      </trkpt>
      <trkpt lat="42.90217" lon="0.18074">
        <ele>1969</ele>
        <time>2012-04-22T05:57:40Z</time>
      </trkpt>
      <trkpt lat="42.90213" lon="0.1808">
        <ele>1971</ele>
        <time>2012-04-22T05:57:51Z</time>
      </trkpt>
      <trkpt lat="42.90207" lon="0.18086">
        <ele>1972</ele>
        <time>2012-04-22T05:57:59Z</time>
      </trkpt>
      <trkpt lat="42.90206" lon="0.18087">
        <ele>1973</ele>
        <time>2012-04-22T05:58:04Z</time>
      </trkpt>
      <trkpt lat="42.90204" lon="0.18087">
        <ele>1976</ele>
        <time>2012-04-22T05:58:20Z</time>
      </trkpt>
      <trkpt lat="42.90203" lon="0.18077">
        <ele>1977</ele>
        <time>2012-04-22T05:58:33Z</time>
      </trkpt>
      <trkpt lat="42.90203" lon="0.18075">
        <ele>1982</ele>
        <time>2012-04-22T05:58:46Z</time>
      </trkpt>
      <trkpt lat="42.90197" lon="0.18083">
        <ele>1985</ele>
        <time>2012-04-22T05:59:02Z</time>
      </trkpt>
      <trkpt lat="42.90194" lon="0.18082">
        <ele>1988</ele>
        <time>2012-04-22T05:59:22Z</time>
      </trkpt>
      <trkpt lat="42.90193" lon="0.1807">
        <ele>1990</ele>
        <time>2012-04-22T05:59:39Z</time>
      </trkpt>
      <trkpt lat="42.90192" lon="0.18066">
        <ele>1991</ele>
        <time>2012-04-22T05:59:54Z</time>
      </trkpt>
      <trkpt lat="42.9019" lon="0.18052">
        <ele>1992</ele>
        <time>2012-04-22T06:00:06Z</time>
      </trkpt>
      <trkpt lat="42.90189" lon="0.18044">
        <ele>1991</ele>
        <time>2012-04-22T06:00:19Z</time>
      </trkpt>
      <trkpt lat="42.90188" lon="0.18037">
        <ele>1993</ele>
        <time>2012-04-22T06:00:35Z</time>
      </trkpt>
      <trkpt lat="42.90185" lon="0.18048">
        <ele>1996</ele>
        <time>2012-04-22T06:00:53Z</time>
      </trkpt>
      <trkpt lat="42.9018" lon="0.18058">
        <ele>1999</ele>
        <time>2012-04-22T06:01:08Z</time>
      </trkpt>
      <trkpt lat="42.90179" lon="0.18048">
        <ele>2001</ele>
        <time>2012-04-22T06:01:23Z</time>
      </trkpt>
      <trkpt lat="42.90179" lon="0.18043">
        <ele>2002</ele>
        <time>2012-04-22T06:01:34Z</time>
      </trkpt>
      <trkpt lat="42.90176" lon="0.18043">
        <ele>2003</ele>
        <time>2012-04-22T06:01:56Z</time>
      </trkpt>
      <trkpt lat="42.90175" lon="0.1805">
        <ele>2004</ele>
        <time>2012-04-22T06:02:15Z</time>
      </trkpt>
      <trkpt lat="42.90173" lon="0.18053">
        <ele>2005</ele>
        <time>2012-04-22T06:02:20Z</time>
      </trkpt>
      <trkpt lat="42.90171" lon="0.18055">
        <ele>2005</ele>
        <time>2012-04-22T06:02:24Z</time>
      </trkpt>
      <trkpt lat="42.90167" lon="0.18066">
        <ele>2008</ele>
        <time>2012-04-22T06:02:39Z</time>
      </trkpt>
      <trkpt lat="42.90167" lon="0.18068">
        <ele>2009</ele>
        <time>2012-04-22T06:02:45Z</time>
      </trkpt>
      <trkpt lat="42.90164" lon="0.1808">
        <ele>2013</ele>
        <time>2012-04-22T06:03:03Z</time>
      </trkpt>
      <trkpt lat="42.9016" lon="0.1808">
        <ele>2017</ele>
        <time>2012-04-22T06:03:39Z</time>
      </trkpt>
      <trkpt lat="42.90158" lon="0.1807">
        <ele>2020</ele>
        <time>2012-04-22T06:03:57Z</time>
      </trkpt>
      <trkpt lat="42.90157" lon="0.18062">
        <ele>2022</ele>
        <time>2012-04-22T06:04:09Z</time>
      </trkpt>
      <trkpt lat="42.90158" lon="0.1806">
        <ele>2023</ele>
        <time>2012-04-22T06:04:11Z</time>
      </trkpt>
      <trkpt lat="42.90158" lon="0.18058">
        <ele>2023</ele>
        <time>2012-04-22T06:04:13Z</time>
      </trkpt>
      <trkpt lat="42.90155" lon="0.18051">
        <ele>2024</ele>
        <time>2012-04-22T06:04:29Z</time>
      </trkpt>
      <trkpt lat="42.90153" lon="0.18038">
        <ele>2024</ele>
        <time>2012-04-22T06:04:43Z</time>
      </trkpt>
      <trkpt lat="42.90152" lon="0.18034">
        <ele>2024</ele>
        <time>2012-04-22T06:04:57Z</time>
      </trkpt>
      <trkpt lat="42.90152" lon="0.18024">
        <ele>2025</ele>
        <time>2012-04-22T06:05:08Z</time>
      </trkpt>
      <trkpt lat="42.90151" lon="0.18023">
        <ele>2026</ele>
        <time>2012-04-22T06:05:11Z</time>
      </trkpt>
      <trkpt lat="42.90149" lon="0.18013">
        <ele>2029</ele>
        <time>2012-04-22T06:05:26Z</time>
      </trkpt>
      <trkpt lat="42.90148" lon="0.18004">
        <ele>2033</ele>
        <time>2012-04-22T06:05:37Z</time>
      </trkpt>
      <trkpt lat="42.90149" lon="0.18002">
        <ele>2040</ele>
        <time>2012-04-22T06:06:02Z</time>
      </trkpt>
      <trkpt lat="42.90147" lon="0.18009">
        <ele>2040</ele>
        <time>2012-04-22T06:06:15Z</time>
      </trkpt>
      <trkpt lat="42.90144" lon="0.18017">
        <ele>2040</ele>
        <time>2012-04-22T06:06:25Z</time>
      </trkpt>
      <trkpt lat="42.9014" lon="0.18024">
        <ele>2041</ele>
        <time>2012-04-22T06:06:35Z</time>
      </trkpt>
      <trkpt lat="42.90137" lon="0.18032">
        <ele>2042</ele>
        <time>2012-04-22T06:06:44Z</time>
      </trkpt>
      <trkpt lat="42.90135" lon="0.18041">
        <ele>2045</ele>
        <time>2012-04-22T06:06:57Z</time>
      </trkpt>
      <trkpt lat="42.90132" lon="0.18045">
        <ele>2048</ele>
        <time>2012-04-22T06:07:04Z</time>
      </trkpt>
      <trkpt lat="42.90128" lon="0.18055">
        <ele>2051</ele>
        <time>2012-04-22T06:07:19Z</time>
      </trkpt>
      <trkpt lat="42.90128" lon="0.18063">
        <ele>2052</ele>
        <time>2012-04-22T06:07:30Z</time>
      </trkpt>
      <trkpt lat="42.90127" lon="0.18078">
        <ele>2054</ele>
        <time>2012-04-22T06:07:46Z</time>
      </trkpt>
      <trkpt lat="42.90126" lon="0.18081">
        <ele>2054</ele>
        <time>2012-04-22T06:07:56Z</time>
      </trkpt>
      <trkpt lat="42.90122" lon="0.18094">
        <ele>2055</ele>
        <time>2012-04-22T06:08:11Z</time>
      </trkpt>
      <trkpt lat="42.90118" lon="0.18107">
        <ele>2056</ele>
        <time>2012-04-22T06:08:26Z</time>
      </trkpt>
      <trkpt lat="42.90115" lon="0.18118">
        <ele>2059</ele>
        <time>2012-04-22T06:08:39Z</time>
      </trkpt>
      <trkpt lat="42.90109" lon="0.18129">
        <ele>2061</ele>
        <time>2012-04-22T06:08:53Z</time>
      </trkpt>
      <trkpt lat="42.90108" lon="0.1813">
        <ele>2064</ele>
        <time>2012-04-22T06:09:11Z</time>
      </trkpt>
      <trkpt lat="42.90106" lon="0.18134">
        <ele>2064</ele>
        <time>2012-04-22T06:09:22Z</time>
      </trkpt>
      <trkpt lat="42.90099" lon="0.18143">
        <ele>2064</ele>
        <time>2012-04-22T06:09:34Z</time>
      </trkpt>
      <trkpt lat="42.90098" lon="0.18145">
        <ele>2064</ele>
        <time>2012-04-22T06:09:36Z</time>
      </trkpt>
      <trkpt lat="42.9009" lon="0.1815">
        <ele>2066</ele>
        <time>2012-04-22T06:09:48Z</time>
      </trkpt>
      <trkpt lat="42.90087" lon="0.18154">
        <ele>2066</ele>
        <time>2012-04-22T06:09:53Z</time>
      </trkpt>
      <trkpt lat="42.90086" lon="0.18153">
        <ele>2066</ele>
        <time>2012-04-22T06:09:55Z</time>
      </trkpt>
      <trkpt lat="42.90078" lon="0.18161">
        <ele>2066</ele>
        <time>2012-04-22T06:10:09Z</time>
      </trkpt>
      <trkpt lat="42.9007" lon="0.18166">
        <ele>2067</ele>
        <time>2012-04-22T06:10:30Z</time>
      </trkpt>
      <trkpt lat="42.90067" lon="0.18169">
        <ele>2069</ele>
        <time>2012-04-22T06:10:43Z</time>
      </trkpt>
      <trkpt lat="42.90065" lon="0.18168">
        <ele>2070</ele>
        <time>2012-04-22T06:11:06Z</time>
      </trkpt>
      <trkpt lat="42.90067" lon="0.18167">
        <ele>2074</ele>
        <time>2012-04-22T06:11:38Z</time>
      </trkpt>
      <trkpt lat="42.90066" lon="0.18168">
        <ele>2073</ele>
        <time>2012-04-22T06:11:59Z</time>
      </trkpt>
      <trkpt lat="42.90063" lon="0.18172">
        <ele>2075</ele>
        <time>2012-04-22T06:12:24Z</time>
      </trkpt>
      <trkpt lat="42.90056" lon="0.18177">
        <ele>2077</ele>
        <time>2012-04-22T06:12:37Z</time>
      </trkpt>
      <trkpt lat="42.9005" lon="0.18181">
        <ele>2079</ele>
        <time>2012-04-22T06:12:48Z</time>
      </trkpt>
      <trkpt lat="42.90046" lon="0.18194">
        <ele>2079</ele>
        <time>2012-04-22T06:13:02Z</time>
      </trkpt>
      <trkpt lat="42.90042" lon="0.18199">
        <ele>2079</ele>
        <time>2012-04-22T06:13:23Z</time>
      </trkpt>
      <trkpt lat="42.90042" lon="0.18198">
        <ele>2082</ele>
        <time>2012-04-22T06:14:06Z</time>
      </trkpt>
      <trkpt lat="42.90042" lon="0.18199">
        <ele>2083</ele>
        <time>2012-04-22T06:14:10Z</time>
      </trkpt>
      <trkpt lat="42.90042" lon="0.18199">
        <ele>2078</ele>
        <time>2012-04-22T06:14:28Z</time>
      </trkpt>
      <trkpt lat="42.90041" lon="0.18199">
        <ele>2078</ele>
        <time>2012-04-22T06:14:49Z</time>
      </trkpt>
      <trkpt lat="42.90043" lon="0.182">
        <ele>2079</ele>
        <time>2012-04-22T06:15:41Z</time>
      </trkpt>
      <trkpt lat="42.90044" lon="0.182">
        <ele>2080</ele>
        <time>2012-04-22T06:16:09Z</time>
      </trkpt>
      <trkpt lat="42.90044" lon="0.182">
        <ele>2080</ele>
        <time>2012-04-22T06:16:59Z</time>
      </trkpt>
      <trkpt lat="42.90047" lon="0.18199">
        <ele>2080</ele>
        <time>2012-04-22T06:17:30Z</time>
      </trkpt>
      <trkpt lat="42.90048" lon="0.182">
        <ele>2080</ele>
        <time>2012-04-22T06:18:13Z</time>
      </trkpt>
      <trkpt lat="42.90047" lon="0.182">
        <ele>2079</ele>
        <time>2012-04-22T06:18:34Z</time>
      </trkpt>
      <trkpt lat="42.90043" lon="0.18201">
        <ele>2078</ele>
        <time>2012-04-22T06:21:14Z</time>
      </trkpt>
      <trkpt lat="42.90044" lon="0.18202">
        <ele>2079</ele>
        <time>2012-04-22T06:21:23Z</time>
      </trkpt>
      <trkpt lat="42.90044" lon="0.18201">
        <ele>2080</ele>
        <time>2012-04-22T06:21:42Z</time>
      </trkpt>
      <trkpt lat="42.90042" lon="0.18203">
        <ele>2082</ele>
        <time>2012-04-22T06:22:07Z</time>
      </trkpt>
      <trkpt lat="42.90041" lon="0.18203">
        <ele>2082</ele>
        <time>2012-04-22T06:22:12Z</time>
      </trkpt>
      <trkpt lat="42.90039" lon="0.18204">
        <ele>2082</ele>
        <time>2012-04-22T06:22:17Z</time>
      </trkpt>
      <trkpt lat="42.9003" lon="0.18213">
        <ele>2082</ele>
        <time>2012-04-22T06:22:28Z</time>
      </trkpt>
      <trkpt lat="42.90029" lon="0.18215">
        <ele>2082</ele>
        <time>2012-04-22T06:22:29Z</time>
      </trkpt>
      <trkpt lat="42.90021" lon="0.18219">
        <ele>2082</ele>
        <time>2012-04-22T06:22:37Z</time>
      </trkpt>
      <trkpt lat="42.90015" lon="0.18226">
        <ele>2083</ele>
        <time>2012-04-22T06:22:44Z</time>
      </trkpt>
      <trkpt lat="42.90013" lon="0.1823">
        <ele>2083</ele>
        <time>2012-04-22T06:22:51Z</time>
      </trkpt>
      <trkpt lat="42.90006" lon="0.18239">
        <ele>2082</ele>
        <time>2012-04-22T06:23:02Z</time>
      </trkpt>
      <trkpt lat="42.90005" lon="0.1824">
        <ele>2082</ele>
        <time>2012-04-22T06:23:03Z</time>
      </trkpt>
      <trkpt lat="42.89999" lon="0.18241">
        <ele>2079</ele>
        <time>2012-04-22T06:23:15Z</time>
      </trkpt>
      <trkpt lat="42.89997" lon="0.18243">
        <ele>2079</ele>
        <time>2012-04-22T06:23:19Z</time>
      </trkpt>
      <trkpt lat="42.89986" lon="0.18252">
        <ele>2078</ele>
        <time>2012-04-22T06:23:34Z</time>
      </trkpt>
      <trkpt lat="42.89978" lon="0.18257">
        <ele>2078</ele>
        <time>2012-04-22T06:23:44Z</time>
      </trkpt>
      <trkpt lat="42.89975" lon="0.18257">
        <ele>2078</ele>
        <time>2012-04-22T06:23:48Z</time>
      </trkpt>
      <trkpt lat="42.89972" lon="0.1826">
        <ele>2078</ele>
        <time>2012-04-22T06:23:52Z</time>
      </trkpt>
      <trkpt lat="42.89969" lon="0.18263">
        <ele>2078</ele>
        <time>2012-04-22T06:23:57Z</time>
      </trkpt>
      <trkpt lat="42.89963" lon="0.18267">
        <ele>2078</ele>
        <time>2012-04-22T06:24:08Z</time>
      </trkpt>
      <trkpt lat="42.89961" lon="0.18267">
        <ele>2078</ele>
        <time>2012-04-22T06:24:11Z</time>
      </trkpt>
      <trkpt lat="42.89961" lon="0.1827">
        <ele>2080</ele>
        <time>2012-04-22T06:24:15Z</time>
      </trkpt>
      <trkpt lat="42.8996" lon="0.18266">
        <ele>2080</ele>
        <time>2012-04-22T06:24:20Z</time>
      </trkpt>
      <trkpt lat="42.89949" lon="0.18273">
        <ele>2082</ele>
        <time>2012-04-22T06:24:33Z</time>
      </trkpt>
      <trkpt lat="42.89943" lon="0.18278">
        <ele>2083</ele>
        <time>2012-04-22T06:24:40Z</time>
      </trkpt>
      <trkpt lat="42.89941" lon="0.1828">
        <ele>2083</ele>
        <time>2012-04-22T06:24:43Z</time>
      </trkpt>
      <trkpt lat="42.89939" lon="0.18283">
        <ele>2085</ele>
        <time>2012-04-22T06:24:51Z</time>
      </trkpt>
      <trkpt lat="42.89935" lon="0.18289">
        <ele>2088</ele>
        <time>2012-04-22T06:25:04Z</time>
      </trkpt>
      <trkpt lat="42.89934" lon="0.1829">
        <ele>2088</ele>
        <time>2012-04-22T06:25:05Z</time>
      </trkpt>
      <trkpt lat="42.8993" lon="0.18293">
        <ele>2089</ele>
        <time>2012-04-22T06:25:12Z</time>
      </trkpt>
      <trkpt lat="42.89928" lon="0.18295">
        <ele>2088</ele>
        <time>2012-04-22T06:25:18Z</time>
      </trkpt>
      <trkpt lat="42.89925" lon="0.18296">
        <ele>2087</ele>
        <time>2012-04-22T06:25:28Z</time>
      </trkpt>
      <trkpt lat="42.89923" lon="0.18298">
        <ele>2088</ele>
        <time>2012-04-22T06:25:32Z</time>
      </trkpt>
      <trkpt lat="42.89914" lon="0.18301">
        <ele>2087</ele>
        <time>2012-04-22T06:25:44Z</time>
      </trkpt>
      <trkpt lat="42.89913" lon="0.18301">
        <ele>2087</ele>
        <time>2012-04-22T06:25:45Z</time>
      </trkpt>
      <trkpt lat="42.89911" lon="0.18302">
        <ele>2087</ele>
        <time>2012-04-22T06:25:47Z</time>
      </trkpt>
      <trkpt lat="42.89897" lon="0.18303">
        <ele>2084</ele>
        <time>2012-04-22T06:26:04Z</time>
      </trkpt>
      <trkpt lat="42.89891" lon="0.18305">
        <ele>2086</ele>
        <time>2012-04-22T06:26:13Z</time>
      </trkpt>
      <trkpt lat="42.89889" lon="0.18304">
        <ele>2086</ele>
        <time>2012-04-22T06:26:15Z</time>
      </trkpt>
      <trkpt lat="42.89882" lon="0.183">
        <ele>2088</ele>
        <time>2012-04-22T06:26:31Z</time>
      </trkpt>
      <trkpt lat="42.89869" lon="0.1829">
        <ele>2098</ele>
        <time>2012-04-22T06:26:55Z</time>
      </trkpt>
      <trkpt lat="42.89862" lon="0.18283">
        <ele>2101</ele>
        <time>2012-04-22T06:27:12Z</time>
      </trkpt>
      <trkpt lat="42.89861" lon="0.18282">
        <ele>2101</ele>
        <time>2012-04-22T06:27:13Z</time>
      </trkpt>
      <trkpt lat="42.8986" lon="0.18281">
        <ele>2103</ele>
        <time>2012-04-22T06:27:19Z</time>
      </trkpt>
      <trkpt lat="42.89854" lon="0.18284">
        <ele>2107</ele>
        <time>2012-04-22T06:27:31Z</time>
      </trkpt>
      <trkpt lat="42.89852" lon="0.18285">
        <ele>2107</ele>
        <time>2012-04-22T06:27:36Z</time>
      </trkpt>
      <trkpt lat="42.89847" lon="0.18292">
        <ele>2108</ele>
        <time>2012-04-22T06:27:49Z</time>
      </trkpt>
      <trkpt lat="42.89842" lon="0.18294">
        <ele>2108</ele>
        <time>2012-04-22T06:27:55Z</time>
      </trkpt>
      <trkpt lat="42.89831" lon="0.18298">
        <ele>2111</ele>
        <time>2012-04-22T06:28:11Z</time>
      </trkpt>
      <trkpt lat="42.89826" lon="0.18298">
        <ele>2112</ele>
        <time>2012-04-22T06:28:23Z</time>
      </trkpt>
      <trkpt lat="42.89826" lon="0.183">
        <ele>2114</ele>
        <time>2012-04-22T06:28:54Z</time>
      </trkpt>
      <trkpt lat="42.89823" lon="0.18302">
        <ele>2115</ele>
        <time>2012-04-22T06:29:24Z</time>
      </trkpt>
      <trkpt lat="42.89818" lon="0.183">
        <ele>2116</ele>
        <time>2012-04-22T06:29:29Z</time>
      </trkpt>
      <trkpt lat="42.89794" lon="0.18309">
        <ele>2116</ele>
        <time>2012-04-22T06:29:43Z</time>
      </trkpt>
      <trkpt lat="42.89784" lon="0.18309">
        <ele>2114</ele>
        <time>2012-04-22T06:29:56Z</time>
      </trkpt>
      <trkpt lat="42.89779" lon="0.18311">
        <ele>2113</ele>
        <time>2012-04-22T06:30:01Z</time>
      </trkpt>
      <trkpt lat="42.89769" lon="0.18306">
        <ele>2110</ele>
        <time>2012-04-22T06:30:13Z</time>
      </trkpt>
      <trkpt lat="42.8976" lon="0.18304">
        <ele>2110</ele>
        <time>2012-04-22T06:30:25Z</time>
      </trkpt>
      <trkpt lat="42.8975" lon="0.18298">
        <ele>2112</ele>
        <time>2012-04-22T06:30:40Z</time>
      </trkpt>
      <trkpt lat="42.89735" lon="0.18293">
        <ele>2113</ele>
        <time>2012-04-22T06:30:59Z</time>
      </trkpt>
      <trkpt lat="42.89734" lon="0.18292">
        <ele>2113</ele>
        <time>2012-04-22T06:31:00Z</time>
      </trkpt>
      <trkpt lat="42.89731" lon="0.18291">
        <ele>2113</ele>
        <time>2012-04-22T06:31:03Z</time>
      </trkpt>
      <trkpt lat="42.89723" lon="0.18288">
        <ele>2114</ele>
        <time>2012-04-22T06:31:13Z</time>
      </trkpt>
      <trkpt lat="42.8972" lon="0.18288">
        <ele>2114</ele>
        <time>2012-04-22T06:31:16Z</time>
      </trkpt>
      <trkpt lat="42.89709" lon="0.18288">
        <ele>2114</ele>
        <time>2012-04-22T06:31:27Z</time>
      </trkpt>
      <trkpt lat="42.89707" lon="0.18286">
        <ele>2113</ele>
        <time>2012-04-22T06:31:30Z</time>
      </trkpt>
      <trkpt lat="42.89705" lon="0.18286">
        <ele>2113</ele>
        <time>2012-04-22T06:31:32Z</time>
      </trkpt>
      <trkpt lat="42.89701" lon="0.18289">
        <ele>2111</ele>
        <time>2012-04-22T06:31:40Z</time>
      </trkpt>
      <trkpt lat="42.89699" lon="0.18288">
        <ele>2110</ele>
        <time>2012-04-22T06:31:42Z</time>
      </trkpt>
      <trkpt lat="42.8969" lon="0.18288">
        <ele>2109</ele>
        <time>2012-04-22T06:31:54Z</time>
      </trkpt>
      <trkpt lat="42.89682" lon="0.18288">
        <ele>2108</ele>
        <time>2012-04-22T06:32:04Z</time>
      </trkpt>
      <trkpt lat="42.89675" lon="0.18287">
        <ele>2106</ele>
        <time>2012-04-22T06:32:14Z</time>
      </trkpt>
      <trkpt lat="42.89659" lon="0.18291">
        <ele>2109</ele>
        <time>2012-04-22T06:32:29Z</time>
      </trkpt>
      <trkpt lat="42.89652" lon="0.18291">
        <ele>2110</ele>
        <time>2012-04-22T06:32:34Z</time>
      </trkpt>
      <trkpt lat="42.89647" lon="0.1829">
        <ele>2111</ele>
        <time>2012-04-22T06:32:38Z</time>
      </trkpt>
      <trkpt lat="42.89632" lon="0.18288">
        <ele>2114</ele>
        <time>2012-04-22T06:32:56Z</time>
      </trkpt>
      <trkpt lat="42.89632" lon="0.18288">
        <ele>2114</ele>
        <time>2012-04-22T06:32:57Z</time>
      </trkpt>
      <trkpt lat="42.8963" lon="0.18287">
        <ele>2115</ele>
        <time>2012-04-22T06:33:00Z</time>
      </trkpt>
      <trkpt lat="42.89626" lon="0.18287">
        <ele>2115</ele>
        <time>2012-04-22T06:33:03Z</time>
      </trkpt>
      <trkpt lat="42.89619" lon="0.18285">
        <ele>2120</ele>
        <time>2012-04-22T06:33:22Z</time>
      </trkpt>
      <trkpt lat="42.89617" lon="0.18281">
        <ele>2120</ele>
        <time>2012-04-22T06:33:27Z</time>
      </trkpt>
      <trkpt lat="42.89607" lon="0.18271">
        <ele>2124</ele>
        <time>2012-04-22T06:33:43Z</time>
      </trkpt>
      <trkpt lat="42.89603" lon="0.18267">
        <ele>2127</ele>
        <time>2012-04-22T06:33:51Z</time>
      </trkpt>
      <trkpt lat="42.89599" lon="0.18254">
        <ele>2131</ele>
        <time>2012-04-22T06:34:05Z</time>
      </trkpt>
      <trkpt lat="42.89598" lon="0.18253">
        <ele>2131</ele>
        <time>2012-04-22T06:34:06Z</time>
      </trkpt>
      <trkpt lat="42.89594" lon="0.18256">
        <ele>2137</ele>
        <time>2012-04-22T06:34:31Z</time>
      </trkpt>
      <trkpt lat="42.89586" lon="0.18262">
        <ele>2138</ele>
        <time>2012-04-22T06:34:43Z</time>
      </trkpt>
      <trkpt lat="42.89579" lon="0.18267">
        <ele>2139</ele>
        <time>2012-04-22T06:34:59Z</time>
      </trkpt>
      <trkpt lat="42.89569" lon="0.18272">
        <ele>2138</ele>
        <time>2012-04-22T06:35:18Z</time>
      </trkpt>
      <trkpt lat="42.89562" lon="0.1827">
        <ele>2141</ele>
        <time>2012-04-22T06:35:30Z</time>
      </trkpt>
      <trkpt lat="42.89561" lon="0.18265">
        <ele>2143</ele>
        <time>2012-04-22T06:35:39Z</time>
      </trkpt>
      <trkpt lat="42.89559" lon="0.18254">
        <ele>2146</ele>
        <time>2012-04-22T06:35:53Z</time>
      </trkpt>
      <trkpt lat="42.89558" lon="0.18245">
        <ele>2146</ele>
        <time>2012-04-22T06:36:02Z</time>
      </trkpt>
      <trkpt lat="42.89556" lon="0.18239">
        <ele>2146</ele>
        <time>2012-04-22T06:36:13Z</time>
      </trkpt>
      <trkpt lat="42.8955" lon="0.18247">
        <ele>2144</ele>
        <time>2012-04-22T06:36:25Z</time>
      </trkpt>
      <trkpt lat="42.89549" lon="0.18248">
        <ele>2144</ele>
        <time>2012-04-22T06:36:26Z</time>
      </trkpt>
      <trkpt lat="42.89543" lon="0.18254">
        <ele>2146</ele>
        <time>2012-04-22T06:36:43Z</time>
      </trkpt>
      <trkpt lat="42.89537" lon="0.18256">
        <ele>2148</ele>
        <time>2012-04-22T06:36:59Z</time>
      </trkpt>
      <trkpt lat="42.8953" lon="0.18262">
        <ele>2149</ele>
        <time>2012-04-22T06:37:16Z</time>
      </trkpt>
      <trkpt lat="42.89526" lon="0.18258">
        <ele>2149</ele>
        <time>2012-04-22T06:37:36Z</time>
      </trkpt>
      <trkpt lat="42.89525" lon="0.1825">
        <ele>2149</ele>
        <time>2012-04-22T06:37:46Z</time>
      </trkpt>
      <trkpt lat="42.89522" lon="0.18238">
        <ele>2148</ele>
        <time>2012-04-22T06:37:56Z</time>
      </trkpt>
      <trkpt lat="42.89523" lon="0.18222">
        <ele>2153</ele>
        <time>2012-04-22T06:38:13Z</time>
      </trkpt>
      <trkpt lat="42.89524" lon="0.18225">
        <ele>2154</ele>
        <time>2012-04-22T06:38:20Z</time>
      </trkpt>
      <trkpt lat="42.89523" lon="0.18226">
        <ele>2154</ele>
        <time>2012-04-22T06:38:22Z</time>
      </trkpt>
      <trkpt lat="42.89519" lon="0.18234">
        <ele>2159</ele>
        <time>2012-04-22T06:38:34Z</time>
      </trkpt>
      <trkpt lat="42.89512" lon="0.18245">
        <ele>2163</ele>
        <time>2012-04-22T06:38:50Z</time>
      </trkpt>
      <trkpt lat="42.89512" lon="0.18246">
        <ele>2164</ele>
        <time>2012-04-22T06:38:53Z</time>
      </trkpt>
      <trkpt lat="42.89506" lon="0.18254">
        <ele>2165</ele>
        <time>2012-04-22T06:39:12Z</time>
      </trkpt>
      <trkpt lat="42.89502" lon="0.18256">
        <ele>2166</ele>
        <time>2012-04-22T06:39:24Z</time>
      </trkpt>
      <trkpt lat="42.89505" lon="0.18248">
        <ele>2165</ele>
        <time>2012-04-22T06:39:31Z</time>
      </trkpt>
      <trkpt lat="42.89503" lon="0.18238">
        <ele>2166</ele>
        <time>2012-04-22T06:39:46Z</time>
      </trkpt>
      <trkpt lat="42.89497" lon="0.18246">
        <ele>2165</ele>
        <time>2012-04-22T06:40:03Z</time>
      </trkpt>
      <trkpt lat="42.89495" lon="0.18248">
        <ele>2165</ele>
        <time>2012-04-22T06:40:05Z</time>
      </trkpt>
      <trkpt lat="42.89489" lon="0.18254">
        <ele>2168</ele>
        <time>2012-04-22T06:40:21Z</time>
      </trkpt>
      <trkpt lat="42.89488" lon="0.18242">
        <ele>2166</ele>
        <time>2012-04-22T06:40:39Z</time>
      </trkpt>
      <trkpt lat="42.89489" lon="0.18226">
        <ele>2166</ele>
        <time>2012-04-22T06:40:59Z</time>
      </trkpt>
      <trkpt lat="42.89485" lon="0.18229">
        <ele>2167</ele>
        <time>2012-04-22T06:41:15Z</time>
      </trkpt>
      <trkpt lat="42.8948" lon="0.18234">
        <ele>2171</ele>
        <time>2012-04-22T06:41:25Z</time>
      </trkpt>
      <trkpt lat="42.89478" lon="0.18236">
        <ele>2175</ele>
        <time>2012-04-22T06:41:42Z</time>
      </trkpt>
      <trkpt lat="42.89479" lon="0.18234">
        <ele>2175</ele>
        <time>2012-04-22T06:41:47Z</time>
      </trkpt>
      <trkpt lat="42.89482" lon="0.18218">
        <ele>2175</ele>
        <time>2012-04-22T06:42:03Z</time>
      </trkpt>
      <trkpt lat="42.89481" lon="0.18216">
        <ele>2179</ele>
        <time>2012-04-22T06:42:16Z</time>
      </trkpt>
      <trkpt lat="42.89475" lon="0.1822">
        <ele>2184</ele>
        <time>2012-04-22T06:42:29Z</time>
      </trkpt>
      <trkpt lat="42.8947" lon="0.18229">
        <ele>2190</ele>
        <time>2012-04-22T06:42:43Z</time>
      </trkpt>
      <trkpt lat="42.89471" lon="0.18231">
        <ele>2193</ele>
        <time>2012-04-22T06:42:51Z</time>
      </trkpt>
      <trkpt lat="42.89473" lon="0.18223">
        <ele>2196</ele>
        <time>2012-04-22T06:43:01Z</time>
      </trkpt>
      <trkpt lat="42.89475" lon="0.18219">
        <ele>2196</ele>
        <time>2012-04-22T06:43:06Z</time>
      </trkpt>
      <trkpt lat="42.89475" lon="0.18215">
        <ele>2198</ele>
        <time>2012-04-22T06:43:23Z</time>
      </trkpt>
      <trkpt lat="42.8947" lon="0.18218">
        <ele>2199</ele>
        <time>2012-04-22T06:43:35Z</time>
      </trkpt>
      <trkpt lat="42.89463" lon="0.18224">
        <ele>2202</ele>
        <time>2012-04-22T06:43:47Z</time>
      </trkpt>
      <trkpt lat="42.89457" lon="0.1823">
        <ele>2205</ele>
        <time>2012-04-22T06:44:03Z</time>
      </trkpt>
      <trkpt lat="42.8945" lon="0.18233">
        <ele>2207</ele>
        <time>2012-04-22T06:44:19Z</time>
      </trkpt>
      <trkpt lat="42.89449" lon="0.18232">
        <ele>2207</ele>
        <time>2012-04-22T06:44:21Z</time>
      </trkpt>
      <trkpt lat="42.89442" lon="0.18235">
        <ele>2210</ele>
        <time>2012-04-22T06:44:29Z</time>
      </trkpt>
      <trkpt lat="42.8944" lon="0.18239">
        <ele>2215</ele>
        <time>2012-04-22T06:44:45Z</time>
      </trkpt>
      <trkpt lat="42.89437" lon="0.18242">
        <ele>2216</ele>
        <time>2012-04-22T06:44:52Z</time>
      </trkpt>
      <trkpt lat="42.89431" lon="0.18245">
        <ele>2216</ele>
        <time>2012-04-22T06:44:57Z</time>
      </trkpt>
      <trkpt lat="42.8943" lon="0.18244">
        <ele>2217</ele>
        <time>2012-04-22T06:45:00Z</time>
      </trkpt>
      <trkpt lat="42.89428" lon="0.18248">
        <ele>2216</ele>
        <time>2012-04-22T06:45:08Z</time>
      </trkpt>
      <trkpt lat="42.89421" lon="0.18252">
        <ele>2216</ele>
        <time>2012-04-22T06:45:25Z</time>
      </trkpt>
      <trkpt lat="42.89419" lon="0.18242">
        <ele>2214</ele>
        <time>2012-04-22T06:45:48Z</time>
      </trkpt>
      <trkpt lat="42.8942" lon="0.18239">
        <ele>2214</ele>
        <time>2012-04-22T06:45:53Z</time>
      </trkpt>
      <trkpt lat="42.89422" lon="0.18232">
        <ele>2214</ele>
        <time>2012-04-22T06:45:58Z</time>
      </trkpt>
      <trkpt lat="42.89427" lon="0.1822">
        <ele>2215</ele>
        <time>2012-04-22T06:46:11Z</time>
      </trkpt>
      <trkpt lat="42.89432" lon="0.18209">
        <ele>2217</ele>
        <time>2012-04-22T06:46:22Z</time>
      </trkpt>
      <trkpt lat="42.89433" lon="0.18201">
        <ele>2219</ele>
        <time>2012-04-22T06:46:41Z</time>
      </trkpt>
      <trkpt lat="42.89432" lon="0.18204">
        <ele>2220</ele>
        <time>2012-04-22T06:46:45Z</time>
      </trkpt>
      <trkpt lat="42.89426" lon="0.18207">
        <ele>2220</ele>
        <time>2012-04-22T06:46:55Z</time>
      </trkpt>
      <trkpt lat="42.89421" lon="0.18209">
        <ele>2223</ele>
        <time>2012-04-22T06:47:03Z</time>
      </trkpt>
      <trkpt lat="42.89418" lon="0.18208">
        <ele>2226</ele>
        <time>2012-04-22T06:47:12Z</time>
      </trkpt>
      <trkpt lat="42.89415" lon="0.1821">
        <ele>2228</ele>
        <time>2012-04-22T06:47:20Z</time>
      </trkpt>
      <trkpt lat="42.89413" lon="0.18216">
        <ele>2232</ele>
        <time>2012-04-22T06:47:37Z</time>
      </trkpt>
      <trkpt lat="42.89413" lon="0.18215">
        <ele>2232</ele>
        <time>2012-04-22T06:47:39Z</time>
      </trkpt>
      <trkpt lat="42.89415" lon="0.1821">
        <ele>2233</ele>
        <time>2012-04-22T06:47:44Z</time>
      </trkpt>
      <trkpt lat="42.89419" lon="0.18199">
        <ele>2235</ele>
        <time>2012-04-22T06:47:59Z</time>
      </trkpt>
      <trkpt lat="42.89422" lon="0.18192">
        <ele>2235</ele>
        <time>2012-04-22T06:48:07Z</time>
      </trkpt>
      <trkpt lat="42.89424" lon="0.18185">
        <ele>2235</ele>
        <time>2012-04-22T06:48:20Z</time>
      </trkpt>
      <trkpt lat="42.89425" lon="0.18185">
        <ele>2235</ele>
        <time>2012-04-22T06:48:25Z</time>
      </trkpt>
      <trkpt lat="42.89423" lon="0.18189">
        <ele>2236</ele>
        <time>2012-04-22T06:48:36Z</time>
      </trkpt>
      <trkpt lat="42.89419" lon="0.18187">
        <ele>2236</ele>
        <time>2012-04-22T06:48:41Z</time>
      </trkpt>
      <trkpt lat="42.89418" lon="0.18187">
        <ele>2236</ele>
        <time>2012-04-22T06:48:43Z</time>
      </trkpt>
      <trkpt lat="42.89409" lon="0.18191">
        <ele>2236</ele>
        <time>2012-04-22T06:48:58Z</time>
      </trkpt>
      <trkpt lat="42.89409" lon="0.18181">
        <ele>2235</ele>
        <time>2012-04-22T06:49:14Z</time>
      </trkpt>
      <trkpt lat="42.89415" lon="0.18169">
        <ele>2235</ele>
        <time>2012-04-22T06:49:28Z</time>
      </trkpt>
      <trkpt lat="42.89421" lon="0.1816">
        <ele>2238</ele>
        <time>2012-04-22T06:49:46Z</time>
      </trkpt>
      <trkpt lat="42.89427" lon="0.18154">
        <ele>2239</ele>
        <time>2012-04-22T06:49:56Z</time>
      </trkpt>
      <trkpt lat="42.89424" lon="0.18153">
        <ele>2243</ele>
        <time>2012-04-22T06:50:14Z</time>
      </trkpt>
      <trkpt lat="42.89415" lon="0.18155">
        <ele>2247</ele>
        <time>2012-04-22T06:50:33Z</time>
      </trkpt>
      <trkpt lat="42.89415" lon="0.18156">
        <ele>2250</ele>
        <time>2012-04-22T06:51:17Z</time>
      </trkpt>
      <trkpt lat="42.8941" lon="0.18154">
        <ele>2252</ele>
        <time>2012-04-22T06:51:36Z</time>
      </trkpt>
      <trkpt lat="42.89416" lon="0.18143">
        <ele>2254</ele>
        <time>2012-04-22T06:51:53Z</time>
      </trkpt>
      <trkpt lat="42.89416" lon="0.18139">
        <ele>2255</ele>
        <time>2012-04-22T06:51:58Z</time>
      </trkpt>
      <trkpt lat="42.89419" lon="0.18126">
        <ele>2259</ele>
        <time>2012-04-22T06:52:15Z</time>
      </trkpt>
      <trkpt lat="42.89418" lon="0.18125">
        <ele>2259</ele>
        <time>2012-04-22T06:52:17Z</time>
      </trkpt>
      <trkpt lat="42.8942" lon="0.1812">
        <ele>2259</ele>
        <time>2012-04-22T06:52:37Z</time>
      </trkpt>
      <trkpt lat="42.89414" lon="0.18126">
        <ele>2262</ele>
        <time>2012-04-22T06:52:54Z</time>
      </trkpt>
      <trkpt lat="42.89413" lon="0.18127">
        <ele>2262</ele>
        <time>2012-04-22T06:52:58Z</time>
      </trkpt>
      <trkpt lat="42.89406" lon="0.18132">
        <ele>2266</ele>
        <time>2012-04-22T06:53:14Z</time>
      </trkpt>
      <trkpt lat="42.89401" lon="0.18132">
        <ele>2269</ele>
        <time>2012-04-22T06:53:28Z</time>
      </trkpt>
      <trkpt lat="42.89404" lon="0.18127">
        <ele>2270</ele>
        <time>2012-04-22T06:53:35Z</time>
      </trkpt>
      <trkpt lat="42.89409" lon="0.18119">
        <ele>2272</ele>
        <time>2012-04-22T06:53:46Z</time>
      </trkpt>
      <trkpt lat="42.89412" lon="0.18106">
        <ele>2275</ele>
        <time>2012-04-22T06:54:04Z</time>
      </trkpt>
      <trkpt lat="42.89413" lon="0.18102">
        <ele>2275</ele>
        <time>2012-04-22T06:54:09Z</time>
      </trkpt>
      <trkpt lat="42.89411" lon="0.18104">
        <ele>2275</ele>
        <time>2012-04-22T06:54:26Z</time>
      </trkpt>
      <trkpt lat="42.89402" lon="0.18103">
        <ele>2273</ele>
        <time>2012-04-22T06:54:37Z</time>
      </trkpt>
      <trkpt lat="42.89401" lon="0.18101">
        <ele>2272</ele>
        <time>2012-04-22T06:54:39Z</time>
      </trkpt>
      <trkpt lat="42.89409" lon="0.18088">
        <ele>2273</ele>
        <time>2012-04-22T06:55:00Z</time>
      </trkpt>
      <trkpt lat="42.8941" lon="0.18087">
        <ele>2273</ele>
        <time>2012-04-22T06:55:02Z</time>
      </trkpt>
      <trkpt lat="42.89418" lon="0.18085">
        <ele>2278</ele>
        <time>2012-04-22T06:55:16Z</time>
      </trkpt>
      <trkpt lat="42.89423" lon="0.18079">
        <ele>2283</ele>
        <time>2012-04-22T06:55:29Z</time>
      </trkpt>
      <trkpt lat="42.89416" lon="0.18077">
        <ele>2291</ele>
        <time>2012-04-22T06:55:52Z</time>
      </trkpt>
      <trkpt lat="42.89414" lon="0.18077">
        <ele>2293</ele>
        <time>2012-04-22T06:56:00Z</time>
      </trkpt>
      <trkpt lat="42.89417" lon="0.1807">
        <ele>2294</ele>
        <time>2012-04-22T06:56:11Z</time>
      </trkpt>
      <trkpt lat="42.89419" lon="0.18068">
        <ele>2293</ele>
        <time>2012-04-22T06:56:15Z</time>
      </trkpt>
      <trkpt lat="42.89418" lon="0.18063">
        <ele>2293</ele>
        <time>2012-04-22T06:56:20Z</time>
      </trkpt>
      <trkpt lat="42.89418" lon="0.18053">
        <ele>2293</ele>
        <time>2012-04-22T06:56:29Z</time>
      </trkpt>
      <trkpt lat="42.89415" lon="0.18041">
        <ele>2296</ele>
        <time>2012-04-22T06:56:43Z</time>
      </trkpt>
      <trkpt lat="42.89415" lon="0.18034">
        <ele>2298</ele>
        <time>2012-04-22T06:56:50Z</time>
      </trkpt>
      <trkpt lat="42.8942" lon="0.18021">
        <ele>2300</ele>
        <time>2012-04-22T06:57:04Z</time>
      </trkpt>
      <trkpt lat="42.89423" lon="0.18017">
        <ele>2301</ele>
        <time>2012-04-22T06:57:10Z</time>
      </trkpt>
      <trkpt lat="42.89425" lon="0.18011">
        <ele>2301</ele>
        <time>2012-04-22T06:57:16Z</time>
      </trkpt>
      <trkpt lat="42.89424" lon="0.18003">
        <ele>2301</ele>
        <time>2012-04-22T06:57:23Z</time>
      </trkpt>
      <trkpt lat="42.89425" lon="0.17997">
        <ele>2303</ele>
        <time>2012-04-22T06:57:43Z</time>
      </trkpt>
      <trkpt lat="42.89425" lon="0.17998">
        <ele>2305</ele>
        <time>2012-04-22T06:58:27Z</time>
      </trkpt>
      <trkpt lat="42.89425" lon="0.18">
        <ele>2307</ele>
        <time>2012-04-22T06:59:25Z</time>
      </trkpt>
      <trkpt lat="42.89424" lon="0.17999">
        <ele>2310</ele>
        <time>2012-04-22T07:00:18Z</time>
      </trkpt>
      <trkpt lat="42.89424" lon="0.17999">
        <ele>2310</ele>
        <time>2012-04-22T07:00:47Z</time>
      </trkpt>
      <trkpt lat="42.89423" lon="0.17999">
        <ele>2312</ele>
        <time>2012-04-22T07:01:16Z</time>
      </trkpt>
      <trkpt lat="42.89423" lon="0.17999">
        <ele>2312</ele>
        <time>2012-04-22T07:01:20Z</time>
      </trkpt>
      <trkpt lat="42.89423" lon="0.17998">
        <ele>2312</ele>
        <time>2012-04-22T07:01:28Z</time>
      </trkpt>
      <trkpt lat="42.89423" lon="0.17999">
        <ele>2312</ele>
        <time>2012-04-22T07:01:48Z</time>
      </trkpt>
      <trkpt lat="42.89425" lon="0.17999">
        <ele>2310</ele>
        <time>2012-04-22T07:02:29Z</time>
      </trkpt>
      <trkpt lat="42.89426" lon="0.17997">
        <ele>2309</ele>
        <time>2012-04-22T07:03:03Z</time>
      </trkpt>
      <trkpt lat="42.89426" lon="0.17997">
        <ele>2309</ele>
        <time>2012-04-22T07:03:48Z</time>
      </trkpt>
      <trkpt lat="42.89427" lon="0.17998">
        <ele>2310</ele>
        <time>2012-04-22T07:04:34Z</time>
      </trkpt>
      <trkpt lat="42.89426" lon="0.17998">
        <ele>2310</ele>
        <time>2012-04-22T07:05:33Z</time>
      </trkpt>
      <trkpt lat="42.89425" lon="0.17999">
        <ele>2310</ele>
        <time>2012-04-22T07:06:23Z</time>
      </trkpt>
      <trkpt lat="42.89424" lon="0.17999">
        <ele>2312</ele>
        <time>2012-04-22T07:07:30Z</time>
      </trkpt>
      <trkpt lat="42.89423" lon="0.17999">
        <ele>2311</ele>
        <time>2012-04-22T07:07:33Z</time>
      </trkpt>
      <trkpt lat="42.89424" lon="0.17998">
        <ele>2309</ele>
        <time>2012-04-22T07:08:05Z</time>
      </trkpt>
      <trkpt lat="42.89422" lon="0.17998">
        <ele>2311</ele>
        <time>2012-04-22T07:08:35Z</time>
      </trkpt>
      <trkpt lat="42.89421" lon="0.17997">
        <ele>2311</ele>
        <time>2012-04-22T07:08:37Z</time>
      </trkpt>
      <trkpt lat="42.8942" lon="0.17991">
        <ele>2311</ele>
        <time>2012-04-22T07:08:45Z</time>
      </trkpt>
      <trkpt lat="42.89418" lon="0.17983">
        <ele>2311</ele>
        <time>2012-04-22T07:08:50Z</time>
      </trkpt>
      <trkpt lat="42.89415" lon="0.17963">
        <ele>2312</ele>
        <time>2012-04-22T07:09:06Z</time>
      </trkpt>
      <trkpt lat="42.89412" lon="0.1796">
        <ele>2312</ele>
        <time>2012-04-22T07:09:09Z</time>
      </trkpt>
      <trkpt lat="42.89409" lon="0.17954">
        <ele>2313</ele>
        <time>2012-04-22T07:09:14Z</time>
      </trkpt>
      <trkpt lat="42.89405" lon="0.17939">
        <ele>2314</ele>
        <time>2012-04-22T07:09:28Z</time>
      </trkpt>
      <trkpt lat="42.89399" lon="0.17918">
        <ele>2316</ele>
        <time>2012-04-22T07:09:42Z</time>
      </trkpt>
      <trkpt lat="42.89395" lon="0.17904">
        <ele>2317</ele>
        <time>2012-04-22T07:09:55Z</time>
      </trkpt>
      <trkpt lat="42.89395" lon="0.17902">
        <ele>2317</ele>
        <time>2012-04-22T07:09:57Z</time>
      </trkpt>
      <trkpt lat="42.89392" lon="0.17889">
        <ele>2319</ele>
        <time>2012-04-22T07:10:10Z</time>
      </trkpt>
      <trkpt lat="42.8939" lon="0.17884">
        <ele>2320</ele>
        <time>2012-04-22T07:10:15Z</time>
      </trkpt>
      <trkpt lat="42.89386" lon="0.17873">
        <ele>2320</ele>
        <time>2012-04-22T07:10:25Z</time>
      </trkpt>
      <trkpt lat="42.89382" lon="0.1787">
        <ele>2321</ele>
        <time>2012-04-22T07:10:29Z</time>
      </trkpt>
      <trkpt lat="42.89382" lon="0.17868">
        <ele>2321</ele>
        <time>2012-04-22T07:10:31Z</time>
      </trkpt>
      <trkpt lat="42.89374" lon="0.17855">
        <ele>2323</ele>
        <time>2012-04-22T07:10:45Z</time>
      </trkpt>
      <trkpt lat="42.8937" lon="0.1785">
        <ele>2324</ele>
        <time>2012-04-22T07:10:52Z</time>
      </trkpt>
      <trkpt lat="42.89366" lon="0.17843">
        <ele>2325</ele>
        <time>2012-04-22T07:11:00Z</time>
      </trkpt>
      <trkpt lat="42.89363" lon="0.1784">
        <ele>2326</ele>
        <time>2012-04-22T07:11:04Z</time>
      </trkpt>
      <trkpt lat="42.89357" lon="0.17839">
        <ele>2326</ele>
        <time>2012-04-22T07:11:07Z</time>
      </trkpt>
      <trkpt lat="42.8935" lon="0.17835">
        <ele>2326</ele>
        <time>2012-04-22T07:11:21Z</time>
      </trkpt>
      <trkpt lat="42.89347" lon="0.17829">
        <ele>2327</ele>
        <time>2012-04-22T07:11:40Z</time>
      </trkpt>
      <trkpt lat="42.89345" lon="0.17819">
        <ele>2327</ele>
        <time>2012-04-22T07:11:49Z</time>
      </trkpt>
      <trkpt lat="42.89343" lon="0.17811">
        <ele>2328</ele>
        <time>2012-04-22T07:11:57Z</time>
      </trkpt>
      <trkpt lat="42.89343" lon="0.17806">
        <ele>2329</ele>
        <time>2012-04-22T07:12:02Z</time>
      </trkpt>
      <trkpt lat="42.89341" lon="0.17803">
        <ele>2329</ele>
        <time>2012-04-22T07:12:05Z</time>
      </trkpt>
      <trkpt lat="42.89338" lon="0.17791">
        <ele>2330</ele>
        <time>2012-04-22T07:12:18Z</time>
      </trkpt>
      <trkpt lat="42.89339" lon="0.17786">
        <ele>2331</ele>
        <time>2012-04-22T07:12:23Z</time>
      </trkpt>
      <trkpt lat="42.89344" lon="0.17782">
        <ele>2331</ele>
        <time>2012-04-22T07:12:27Z</time>
      </trkpt>
      <trkpt lat="42.89345" lon="0.17778">
        <ele>2330</ele>
        <time>2012-04-22T07:12:31Z</time>
      </trkpt>
      <trkpt lat="42.89342" lon="0.17773">
        <ele>2330</ele>
        <time>2012-04-22T07:12:35Z</time>
      </trkpt>
      <trkpt lat="42.89348" lon="0.17761">
        <ele>2331</ele>
        <time>2012-04-22T07:12:46Z</time>
      </trkpt>
      <trkpt lat="42.89348" lon="0.17756">
        <ele>2331</ele>
        <time>2012-04-22T07:12:52Z</time>
      </trkpt>
      <trkpt lat="42.89348" lon="0.17746">
        <ele>2334</ele>
        <time>2012-04-22T07:13:07Z</time>
      </trkpt>
      <trkpt lat="42.89347" lon="0.17744">
        <ele>2335</ele>
        <time>2012-04-22T07:13:11Z</time>
      </trkpt>
      <trkpt lat="42.89344" lon="0.17738">
        <ele>2339</ele>
        <time>2012-04-22T07:13:20Z</time>
      </trkpt>
      <trkpt lat="42.89346" lon="0.17735">
        <ele>2342</ele>
        <time>2012-04-22T07:13:40Z</time>
      </trkpt>
      <trkpt lat="42.89341" lon="0.17732">
        <ele>2342</ele>
        <time>2012-04-22T07:13:44Z</time>
      </trkpt>
      <trkpt lat="42.89332" lon="0.17732">
        <ele>2343</ele>
        <time>2012-04-22T07:14:02Z</time>
      </trkpt>
      <trkpt lat="42.89331" lon="0.17741">
        <ele>2350</ele>
        <time>2012-04-22T07:14:30Z</time>
      </trkpt>
      <trkpt lat="42.89315" lon="0.1773">
        <ele>2356</ele>
        <time>2012-04-22T07:14:49Z</time>
      </trkpt>
      <trkpt lat="42.89304" lon="0.17715">
        <ele>2365</ele>
        <time>2012-04-22T07:15:13Z</time>
      </trkpt>
      <trkpt lat="42.89297" lon="0.17713">
        <ele>2366</ele>
        <time>2012-04-22T07:15:20Z</time>
      </trkpt>
      <trkpt lat="42.89286" lon="0.1771">
        <ele>2368</ele>
        <time>2012-04-22T07:15:35Z</time>
      </trkpt>
      <trkpt lat="42.89277" lon="0.17709">
        <ele>2369</ele>
        <time>2012-04-22T07:15:55Z</time>
      </trkpt>
      <trkpt lat="42.89277" lon="0.17709">
        <ele>2369</ele>
        <time>2012-04-22T07:15:57Z</time>
      </trkpt>
      <trkpt lat="42.89272" lon="0.17712">
        <ele>2370</ele>
        <time>2012-04-22T07:16:42Z</time>
      </trkpt>
      <trkpt lat="42.8927" lon="0.17711">
        <ele>2370</ele>
        <time>2012-04-22T07:16:45Z</time>
      </trkpt>
      <trkpt lat="42.89266" lon="0.1771">
        <ele>2370</ele>
        <time>2012-04-22T07:16:49Z</time>
      </trkpt>
      <trkpt lat="42.89254" lon="0.17708">
        <ele>2369</ele>
        <time>2012-04-22T07:17:07Z</time>
      </trkpt>
      <trkpt lat="42.89244" lon="0.17708">
        <ele>2366</ele>
        <time>2012-04-22T07:17:19Z</time>
      </trkpt>
      <trkpt lat="42.89241" lon="0.17709">
        <ele>2365</ele>
        <time>2012-04-22T07:17:27Z</time>
      </trkpt>
      <trkpt lat="42.89226" lon="0.17713">
        <ele>2367</ele>
        <time>2012-04-22T07:17:40Z</time>
      </trkpt>
      <trkpt lat="42.89225" lon="0.17714">
        <ele>2371</ele>
        <time>2012-04-22T07:17:44Z</time>
      </trkpt>
      <trkpt lat="42.8922" lon="0.17715">
        <ele>2374</ele>
        <time>2012-04-22T07:17:50Z</time>
      </trkpt>
      <trkpt lat="42.89213" lon="0.17712">
        <ele>2376</ele>
        <time>2012-04-22T07:17:59Z</time>
      </trkpt>
      <trkpt lat="42.89211" lon="0.17709">
        <ele>2377</ele>
        <time>2012-04-22T07:18:02Z</time>
      </trkpt>
      <trkpt lat="42.89199" lon="0.17707">
        <ele>2379</ele>
        <time>2012-04-22T07:18:16Z</time>
      </trkpt>
      <trkpt lat="42.89198" lon="0.17706">
        <ele>2380</ele>
        <time>2012-04-22T07:18:18Z</time>
      </trkpt>
      <trkpt lat="42.89186" lon="0.1771">
        <ele>2381</ele>
        <time>2012-04-22T07:18:35Z</time>
      </trkpt>
      <trkpt lat="42.89183" lon="0.17714">
        <ele>2381</ele>
        <time>2012-04-22T07:18:50Z</time>
      </trkpt>
      <trkpt lat="42.89174" lon="0.17718">
        <ele>2381</ele>
        <time>2012-04-22T07:19:06Z</time>
      </trkpt>
      <trkpt lat="42.89167" lon="0.17722">
        <ele>2381</ele>
        <time>2012-04-22T07:19:18Z</time>
      </trkpt>
      <trkpt lat="42.89161" lon="0.17726">
        <ele>2382</ele>
        <time>2012-04-22T07:19:25Z</time>
      </trkpt>
      <trkpt lat="42.89153" lon="0.17729">
        <ele>2381</ele>
        <time>2012-04-22T07:19:35Z</time>
      </trkpt>
      <trkpt lat="42.89148" lon="0.17727">
        <ele>2381</ele>
        <time>2012-04-22T07:19:42Z</time>
      </trkpt>
      <trkpt lat="42.89142" lon="0.1773">
        <ele>2382</ele>
        <time>2012-04-22T07:19:54Z</time>
      </trkpt>
      <trkpt lat="42.8914" lon="0.17733">
        <ele>2383</ele>
        <time>2012-04-22T07:20:00Z</time>
      </trkpt>
      <trkpt lat="42.89138" lon="0.17736">
        <ele>2383</ele>
        <time>2012-04-22T07:20:13Z</time>
      </trkpt>
      <trkpt lat="42.89129" lon="0.17738">
        <ele>2384</ele>
        <time>2012-04-22T07:20:33Z</time>
      </trkpt>
      <trkpt lat="42.89118" lon="0.17736">
        <ele>2386</ele>
        <time>2012-04-22T07:20:46Z</time>
      </trkpt>
      <trkpt lat="42.89105" lon="0.17726">
        <ele>2384</ele>
        <time>2012-04-22T07:21:03Z</time>
      </trkpt>
      <trkpt lat="42.89106" lon="0.17726">
        <ele>2388</ele>
        <time>2012-04-22T07:21:20Z</time>
      </trkpt>
      <trkpt lat="42.89106" lon="0.17725">
        <ele>2388</ele>
        <time>2012-04-22T07:21:38Z</time>
      </trkpt>
      <trkpt lat="42.89106" lon="0.17731">
        <ele>2392</ele>
        <time>2012-04-22T07:21:49Z</time>
      </trkpt>
      <trkpt lat="42.89114" lon="0.17737">
        <ele>2393</ele>
        <time>2012-04-22T07:21:57Z</time>
      </trkpt>
      <trkpt lat="42.89111" lon="0.17746">
        <ele>2396</ele>
        <time>2012-04-22T07:22:10Z</time>
      </trkpt>
      <trkpt lat="42.8911" lon="0.17747">
        <ele>2397</ele>
        <time>2012-04-22T07:22:14Z</time>
      </trkpt>
      <trkpt lat="42.89115" lon="0.17756">
        <ele>2399</ele>
        <time>2012-04-22T07:22:28Z</time>
      </trkpt>
      <trkpt lat="42.89117" lon="0.17756">
        <ele>2399</ele>
        <time>2012-04-22T07:22:30Z</time>
      </trkpt>
      <trkpt lat="42.89121" lon="0.17766">
        <ele>2401</ele>
        <time>2012-04-22T07:22:43Z</time>
      </trkpt>
      <trkpt lat="42.89125" lon="0.17766">
        <ele>2402</ele>
        <time>2012-04-22T07:23:04Z</time>
      </trkpt>
      <trkpt lat="42.89117" lon="0.17773">
        <ele>2403</ele>
        <time>2012-04-22T07:23:27Z</time>
      </trkpt>
      <trkpt lat="42.89114" lon="0.17772">
        <ele>2403</ele>
        <time>2012-04-22T07:23:34Z</time>
      </trkpt>
      <trkpt lat="42.89102" lon="0.17769">
        <ele>2402</ele>
        <time>2012-04-22T07:23:49Z</time>
      </trkpt>
      <trkpt lat="42.891" lon="0.17766">
        <ele>2404</ele>
        <time>2012-04-22T07:24:06Z</time>
      </trkpt>
      <trkpt lat="42.891" lon="0.17766">
        <ele>2404</ele>
        <time>2012-04-22T07:24:07Z</time>
      </trkpt>
      <trkpt lat="42.89104" lon="0.17771">
        <ele>2406</ele>
        <time>2012-04-22T07:24:23Z</time>
      </trkpt>
      <trkpt lat="42.89105" lon="0.17773">
        <ele>2406</ele>
        <time>2012-04-22T07:24:25Z</time>
      </trkpt>
      <trkpt lat="42.89111" lon="0.17779">
        <ele>2408</ele>
        <time>2012-04-22T07:24:37Z</time>
      </trkpt>
      <trkpt lat="42.89116" lon="0.17787">
        <ele>2411</ele>
        <time>2012-04-22T07:25:01Z</time>
      </trkpt>
      <trkpt lat="42.89113" lon="0.17788">
        <ele>2412</ele>
        <time>2012-04-22T07:25:21Z</time>
      </trkpt>
      <trkpt lat="42.89109" lon="0.17787">
        <ele>2412</ele>
        <time>2012-04-22T07:25:25Z</time>
      </trkpt>
      <trkpt lat="42.89103" lon="0.17789">
        <ele>2412</ele>
        <time>2012-04-22T07:25:32Z</time>
      </trkpt>
      <trkpt lat="42.89097" lon="0.17787">
        <ele>2414</ele>
        <time>2012-04-22T07:25:37Z</time>
      </trkpt>
      <trkpt lat="42.89087" lon="0.17785">
        <ele>2419</ele>
        <time>2012-04-22T07:26:01Z</time>
      </trkpt>
      <trkpt lat="42.89087" lon="0.17783">
        <ele>2422</ele>
        <time>2012-04-22T07:26:12Z</time>
      </trkpt>
      <trkpt lat="42.89089" lon="0.17785">
        <ele>2423</ele>
        <time>2012-04-22T07:26:17Z</time>
      </trkpt>
      <trkpt lat="42.89084" lon="0.17788">
        <ele>2423</ele>
        <time>2012-04-22T07:26:28Z</time>
      </trkpt>
      <trkpt lat="42.89092" lon="0.17795">
        <ele>2420</ele>
        <time>2012-04-22T07:26:39Z</time>
      </trkpt>
      <trkpt lat="42.89089" lon="0.17799">
        <ele>2419</ele>
        <time>2012-04-22T07:26:47Z</time>
      </trkpt>
      <trkpt lat="42.89101" lon="0.17812">
        <ele>2415</ele>
        <time>2012-04-22T07:27:07Z</time>
      </trkpt>
      <trkpt lat="42.8909" lon="0.17805">
        <ele>2416</ele>
        <time>2012-04-22T07:27:53Z</time>
      </trkpt>
      <trkpt lat="42.89079" lon="0.17799">
        <ele>2413</ele>
        <time>2012-04-22T07:28:05Z</time>
      </trkpt>
      <trkpt lat="42.89064" lon="0.1779">
        <ele>2409</ele>
        <time>2012-04-22T07:28:31Z</time>
      </trkpt>
      <trkpt lat="42.89064" lon="0.1779">
        <ele>2408</ele>
        <time>2012-04-22T07:28:32Z</time>
      </trkpt>
      <trkpt lat="42.8906" lon="0.17782">
        <ele>2407</ele>
        <time>2012-04-22T07:28:40Z</time>
      </trkpt>
      <trkpt lat="42.89059" lon="0.17778">
        <ele>2406</ele>
        <time>2012-04-22T07:28:45Z</time>
      </trkpt>
      <trkpt lat="42.89046" lon="0.17761">
        <ele>2405</ele>
        <time>2012-04-22T07:29:04Z</time>
      </trkpt>
      <trkpt lat="42.89051" lon="0.1776">
        <ele>2411</ele>
        <time>2012-04-22T07:29:21Z</time>
      </trkpt>
      <trkpt lat="42.8905" lon="0.17763">
        <ele>2416</ele>
        <time>2012-04-22T07:29:37Z</time>
      </trkpt>
      <trkpt lat="42.89057" lon="0.17761">
        <ele>2424</ele>
        <time>2012-04-22T07:29:57Z</time>
      </trkpt>
      <trkpt lat="42.89058" lon="0.17758">
        <ele>2430</ele>
        <time>2012-04-22T07:30:14Z</time>
      </trkpt>
      <trkpt lat="42.89062" lon="0.1776">
        <ele>2432</ele>
        <time>2012-04-22T07:30:27Z</time>
      </trkpt>
      <trkpt lat="42.89058" lon="0.17758">
        <ele>2433</ele>
        <time>2012-04-22T07:30:43Z</time>
      </trkpt>
      <trkpt lat="42.89051" lon="0.17756">
        <ele>2437</ele>
        <time>2012-04-22T07:31:05Z</time>
      </trkpt>
      <trkpt lat="42.89036" lon="0.17747">
        <ele>2441</ele>
        <time>2012-04-22T07:31:20Z</time>
      </trkpt>
      <trkpt lat="42.89028" lon="0.17737">
        <ele>2443</ele>
        <time>2012-04-22T07:31:33Z</time>
      </trkpt>
      <trkpt lat="42.8902" lon="0.17721">
        <ele>2445</ele>
        <time>2012-04-22T07:31:48Z</time>
      </trkpt>
      <trkpt lat="42.8901" lon="0.17709">
        <ele>2447</ele>
        <time>2012-04-22T07:32:07Z</time>
      </trkpt>
      <trkpt lat="42.89" lon="0.17699">
        <ele>2447</ele>
        <time>2012-04-22T07:32:23Z</time>
      </trkpt>
      <trkpt lat="42.88995" lon="0.17689">
        <ele>2448</ele>
        <time>2012-04-22T07:32:39Z</time>
      </trkpt>
      <trkpt lat="42.88988" lon="0.17676">
        <ele>2448</ele>
        <time>2012-04-22T07:32:56Z</time>
      </trkpt>
      <trkpt lat="42.88982" lon="0.17668">
        <ele>2448</ele>
        <time>2012-04-22T07:33:07Z</time>
      </trkpt>
      <trkpt lat="42.8898" lon="0.17667">
        <ele>2448</ele>
        <time>2012-04-22T07:33:10Z</time>
      </trkpt>
      <trkpt lat="42.88977" lon="0.17662">
        <ele>2448</ele>
        <time>2012-04-22T07:33:16Z</time>
      </trkpt>
      <trkpt lat="42.88969" lon="0.17637">
        <ele>2449</ele>
        <time>2012-04-22T07:33:49Z</time>
      </trkpt>
      <trkpt lat="42.88968" lon="0.17632">
        <ele>2450</ele>
        <time>2012-04-22T07:33:53Z</time>
      </trkpt>
      <trkpt lat="42.88971" lon="0.17615">
        <ele>2452</ele>
        <time>2012-04-22T07:34:08Z</time>
      </trkpt>
      <trkpt lat="42.88975" lon="0.17605">
        <ele>2458</ele>
        <time>2012-04-22T07:34:27Z</time>
      </trkpt>
      <trkpt lat="42.88972" lon="0.1759">
        <ele>2463</ele>
        <time>2012-04-22T07:34:45Z</time>
      </trkpt>
      <trkpt lat="42.88972" lon="0.17589">
        <ele>2463</ele>
        <time>2012-04-22T07:34:46Z</time>
      </trkpt>
      <trkpt lat="42.8897" lon="0.17576">
        <ele>2465</ele>
        <time>2012-04-22T07:35:01Z</time>
      </trkpt>
      <trkpt lat="42.88969" lon="0.17569">
        <ele>2467</ele>
        <time>2012-04-22T07:35:12Z</time>
      </trkpt>
      <trkpt lat="42.88971" lon="0.17564">
        <ele>2469</ele>
        <time>2012-04-22T07:35:19Z</time>
      </trkpt>
      <trkpt lat="42.88978" lon="0.17559">
        <ele>2473</ele>
        <time>2012-04-22T07:35:29Z</time>
      </trkpt>
      <trkpt lat="42.88983" lon="0.17548">
        <ele>2479</ele>
        <time>2012-04-22T07:35:44Z</time>
      </trkpt>
      <trkpt lat="42.88982" lon="0.17539">
        <ele>2482</ele>
        <time>2012-04-22T07:35:53Z</time>
      </trkpt>
      <trkpt lat="42.88983" lon="0.17524">
        <ele>2488</ele>
        <time>2012-04-22T07:36:23Z</time>
      </trkpt>
      <trkpt lat="42.88983" lon="0.17525">
        <ele>2488</ele>
        <time>2012-04-22T07:36:25Z</time>
      </trkpt>
      <trkpt lat="42.88983" lon="0.17524">
        <ele>2488</ele>
        <time>2012-04-22T07:36:27Z</time>
      </trkpt>
      <trkpt lat="42.88986" lon="0.17526">
        <ele>2488</ele>
        <time>2012-04-22T07:36:29Z</time>
      </trkpt>
      <trkpt lat="42.88989" lon="0.17527">
        <ele>2490</ele>
        <time>2012-04-22T07:36:38Z</time>
      </trkpt>
      <trkpt lat="42.88978" lon="0.17527">
        <ele>2489</ele>
        <time>2012-04-22T07:36:51Z</time>
      </trkpt>
      <trkpt lat="42.88973" lon="0.1753">
        <ele>2488</ele>
        <time>2012-04-22T07:37:01Z</time>
      </trkpt>
      <trkpt lat="42.88968" lon="0.17532">
        <ele>2488</ele>
        <time>2012-04-22T07:37:14Z</time>
      </trkpt>
      <trkpt lat="42.88958" lon="0.17534">
        <ele>2487</ele>
        <time>2012-04-22T07:37:29Z</time>
      </trkpt>
      <trkpt lat="42.88957" lon="0.17535">
        <ele>2487</ele>
        <time>2012-04-22T07:37:32Z</time>
      </trkpt>
      <trkpt lat="42.88955" lon="0.17536">
        <ele>2487</ele>
        <time>2012-04-22T07:37:34Z</time>
      </trkpt>
      <trkpt lat="42.88954" lon="0.17537">
        <ele>2487</ele>
        <time>2012-04-22T07:37:36Z</time>
      </trkpt>
      <trkpt lat="42.88955" lon="0.1754">
        <ele>2487</ele>
        <time>2012-04-22T07:37:40Z</time>
      </trkpt>
      <trkpt lat="42.88946" lon="0.17535">
        <ele>2486</ele>
        <time>2012-04-22T07:37:55Z</time>
      </trkpt>
      <trkpt lat="42.88937" lon="0.17526">
        <ele>2486</ele>
        <time>2012-04-22T07:38:11Z</time>
      </trkpt>
      <trkpt lat="42.88934" lon="0.17518">
        <ele>2486</ele>
        <time>2012-04-22T07:38:26Z</time>
      </trkpt>
      <trkpt lat="42.88926" lon="0.17498">
        <ele>2491</ele>
        <time>2012-04-22T07:38:54Z</time>
      </trkpt>
      <trkpt lat="42.88919" lon="0.17489">
        <ele>2493</ele>
        <time>2012-04-22T07:39:12Z</time>
      </trkpt>
      <trkpt lat="42.88911" lon="0.17485">
        <ele>2498</ele>
        <time>2012-04-22T07:39:26Z</time>
      </trkpt>
      <trkpt lat="42.88899" lon="0.17482">
        <ele>2498</ele>
        <time>2012-04-22T07:39:41Z</time>
      </trkpt>
      <trkpt lat="42.88894" lon="0.17487">
        <ele>2499</ele>
        <time>2012-04-22T07:39:51Z</time>
      </trkpt>
      <trkpt lat="42.88895" lon="0.17494">
        <ele>2501</ele>
        <time>2012-04-22T07:40:03Z</time>
      </trkpt>
      <trkpt lat="42.88896" lon="0.17503">
        <ele>2504</ele>
        <time>2012-04-22T07:40:12Z</time>
      </trkpt>
      <trkpt lat="42.88894" lon="0.1751">
        <ele>2506</ele>
        <time>2012-04-22T07:40:23Z</time>
      </trkpt>
      <trkpt lat="42.88894" lon="0.17512">
        <ele>2506</ele>
        <time>2012-04-22T07:40:26Z</time>
      </trkpt>
      <trkpt lat="42.889" lon="0.17525">
        <ele>2508</ele>
        <time>2012-04-22T07:40:37Z</time>
      </trkpt>
      <trkpt lat="42.8889" lon="0.17533">
        <ele>2511</ele>
        <time>2012-04-22T07:40:51Z</time>
      </trkpt>
      <trkpt lat="42.88889" lon="0.17533">
        <ele>2511</ele>
        <time>2012-04-22T07:40:52Z</time>
      </trkpt>
      <trkpt lat="42.88879" lon="0.17527">
        <ele>2512</ele>
        <time>2012-04-22T07:41:05Z</time>
      </trkpt>
      <trkpt lat="42.88872" lon="0.17517">
        <ele>2515</ele>
        <time>2012-04-22T07:41:22Z</time>
      </trkpt>
      <trkpt lat="42.88868" lon="0.17516">
        <ele>2517</ele>
        <time>2012-04-22T07:41:29Z</time>
      </trkpt>
      <trkpt lat="42.88867" lon="0.17529">
        <ele>2521</ele>
        <time>2012-04-22T07:41:44Z</time>
      </trkpt>
      <trkpt lat="42.8887" lon="0.17537">
        <ele>2523</ele>
        <time>2012-04-22T07:41:52Z</time>
      </trkpt>
      <trkpt lat="42.8886" lon="0.17543">
        <ele>2524</ele>
        <time>2012-04-22T07:42:05Z</time>
      </trkpt>
      <trkpt lat="42.88859" lon="0.17551">
        <ele>2525</ele>
        <time>2012-04-22T07:42:18Z</time>
      </trkpt>
      <trkpt lat="42.88861" lon="0.17553">
        <ele>2525</ele>
        <time>2012-04-22T07:42:20Z</time>
      </trkpt>
      <trkpt lat="42.8886" lon="0.17558">
        <ele>2526</ele>
        <time>2012-04-22T07:42:25Z</time>
      </trkpt>
      <trkpt lat="42.88858" lon="0.17566">
        <ele>2527</ele>
        <time>2012-04-22T07:42:34Z</time>
      </trkpt>
      <trkpt lat="42.88849" lon="0.17561">
        <ele>2527</ele>
        <time>2012-04-22T07:42:52Z</time>
      </trkpt>
      <trkpt lat="42.88836" lon="0.17543">
        <ele>2531</ele>
        <time>2012-04-22T07:43:34Z</time>
      </trkpt>
      <trkpt lat="42.88833" lon="0.17552">
        <ele>2535</ele>
        <time>2012-04-22T07:43:53Z</time>
      </trkpt>
      <trkpt lat="42.88832" lon="0.17559">
        <ele>2537</ele>
        <time>2012-04-22T07:44:08Z</time>
      </trkpt>
      <trkpt lat="42.8883" lon="0.17563">
        <ele>2538</ele>
        <time>2012-04-22T07:44:18Z</time>
      </trkpt>
      <trkpt lat="42.88829" lon="0.17565">
        <ele>2539</ele>
        <time>2012-04-22T07:44:23Z</time>
      </trkpt>
      <trkpt lat="42.88826" lon="0.17572">
        <ele>2541</ele>
        <time>2012-04-22T07:44:38Z</time>
      </trkpt>
      <trkpt lat="42.88823" lon="0.17577">
        <ele>2543</ele>
        <time>2012-04-22T07:44:57Z</time>
      </trkpt>
      <trkpt lat="42.88811" lon="0.17564">
        <ele>2550</ele>
        <time>2012-04-22T07:45:50Z</time>
      </trkpt>
      <trkpt lat="42.88807" lon="0.1756">
        <ele>2551</ele>
        <time>2012-04-22T07:46:25Z</time>
      </trkpt>
      <trkpt lat="42.88803" lon="0.17559">
        <ele>2552</ele>
        <time>2012-04-22T07:46:29Z</time>
      </trkpt>
      <trkpt lat="42.88799" lon="0.17553">
        <ele>2553</ele>
        <time>2012-04-22T07:46:44Z</time>
      </trkpt>
      <trkpt lat="42.88797" lon="0.1755">
        <ele>2556</ele>
        <time>2012-04-22T07:47:04Z</time>
      </trkpt>
      <trkpt lat="42.88797" lon="0.17555">
        <ele>2559</ele>
        <time>2012-04-22T07:47:31Z</time>
      </trkpt>
      <trkpt lat="42.88794" lon="0.17584">
        <ele>2568</ele>
        <time>2012-04-22T07:48:31Z</time>
      </trkpt>
      <trkpt lat="42.88792" lon="0.17593">
        <ele>2570</ele>
        <time>2012-04-22T07:48:50Z</time>
      </trkpt>
      <trkpt lat="42.88788" lon="0.17621">
        <ele>2575</ele>
        <time>2012-04-22T07:49:32Z</time>
      </trkpt>
      <trkpt lat="42.88784" lon="0.17636">
        <ele>2578</ele>
        <time>2012-04-22T07:49:58Z</time>
      </trkpt>
      <trkpt lat="42.88781" lon="0.1765">
        <ele>2583</ele>
        <time>2012-04-22T07:50:17Z</time>
      </trkpt>
      <trkpt lat="42.88777" lon="0.17666">
        <ele>2585</ele>
        <time>2012-04-22T07:51:01Z</time>
      </trkpt>
      <trkpt lat="42.8876" lon="0.17645">
        <ele>2590</ele>
        <time>2012-04-22T07:52:19Z</time>
      </trkpt>
      <trkpt lat="42.88759" lon="0.17644">
        <ele>2591</ele>
        <time>2012-04-22T07:52:25Z</time>
      </trkpt>
      <trkpt lat="42.88753" lon="0.17651">
        <ele>2597</ele>
        <time>2012-04-22T07:53:08Z</time>
      </trkpt>
      <trkpt lat="42.88749" lon="0.17663">
        <ele>2602</ele>
        <time>2012-04-22T07:53:32Z</time>
      </trkpt>
      <trkpt lat="42.88748" lon="0.17666">
        <ele>2603</ele>
        <time>2012-04-22T07:53:37Z</time>
      </trkpt>
      <trkpt lat="42.88745" lon="0.17676">
        <ele>2608</ele>
        <time>2012-04-22T07:53:56Z</time>
      </trkpt>
      <trkpt lat="42.88748" lon="0.17694">
        <ele>2611</ele>
        <time>2012-04-22T07:54:26Z</time>
      </trkpt>
      <trkpt lat="42.88737" lon="0.17704">
        <ele>2622</ele>
        <time>2012-04-22T07:55:13Z</time>
      </trkpt>
      <trkpt lat="42.8873" lon="0.17707">
        <ele>2631</ele>
        <time>2012-04-22T07:55:31Z</time>
      </trkpt>
      <trkpt lat="42.88719" lon="0.17702">
        <ele>2637</ele>
        <time>2012-04-22T07:55:50Z</time>
      </trkpt>
      <trkpt lat="42.88721" lon="0.17687">
        <ele>2641</ele>
        <time>2012-04-22T07:56:46Z</time>
      </trkpt>
      <trkpt lat="42.88723" lon="0.17681">
        <ele>2644</ele>
        <time>2012-04-22T07:57:28Z</time>
      </trkpt>
      <trkpt lat="42.88719" lon="0.17672">
        <ele>2645</ele>
        <time>2012-04-22T07:58:43Z</time>
      </trkpt>
      <trkpt lat="42.88715" lon="0.17671">
        <ele>2646</ele>
        <time>2012-04-22T08:00:13Z</time>
      </trkpt>
      <trkpt lat="42.88706" lon="0.17658">
        <ele>2645</ele>
        <time>2012-04-22T08:00:40Z</time>
      </trkpt>
      <trkpt lat="42.88707" lon="0.17648">
        <ele>2649</ele>
        <time>2012-04-22T08:01:05Z</time>
      </trkpt>
      <trkpt lat="42.88708" lon="0.17642">
        <ele>2651</ele>
        <time>2012-04-22T08:01:34Z</time>
      </trkpt>
      <trkpt lat="42.88701" lon="0.1762">
        <ele>2662</ele>
        <time>2012-04-22T08:05:45Z</time>
      </trkpt>
      <trkpt lat="42.88703" lon="0.17612">
        <ele>2669</ele>
        <time>2012-04-22T08:08:56Z</time>
      </trkpt>
      <trkpt lat="42.88697" lon="0.17555">
        <ele>2698</ele>
        <time>2012-04-22T08:21:48Z</time>
      </trkpt>
      <trkpt lat="42.8871" lon="0.1761">
        <ele>2684</ele>
        <time>2012-04-22T08:27:21Z</time>
      </trkpt>
      <trkpt lat="42.88707" lon="0.17621">
        <ele>2683</ele>
        <time>2012-04-22T08:27:40Z</time>
      </trkpt>
      <trkpt lat="42.88704" lon="0.17624">
        <ele>2681</ele>
        <time>2012-04-22T08:28:43Z</time>
      </trkpt>
      <trkpt lat="42.88703" lon="0.17626">
        <ele>2680</ele>
        <time>2012-04-22T08:31:16Z</time>
      </trkpt>
      <trkpt lat="42.88704" lon="0.17626">
        <ele>2679</ele>
        <time>2012-04-22T08:32:46Z</time>
      </trkpt>
      <trkpt lat="42.88703" lon="0.17625">
        <ele>2679</ele>
        <time>2012-04-22T08:33:26Z</time>
      </trkpt>
      <trkpt lat="42.88702" lon="0.17624">
        <ele>2677</ele>
        <time>2012-04-22T08:35:59Z</time>
      </trkpt>
      <trkpt lat="42.88703" lon="0.17624">
        <ele>2676</ele>
        <time>2012-04-22T08:36:25Z</time>
      </trkpt>
      <trkpt lat="42.88704" lon="0.17625">
        <ele>2675</ele>
        <time>2012-04-22T08:36:47Z</time>
      </trkpt>
      <trkpt lat="42.88703" lon="0.17623">
        <ele>2674</ele>
        <time>2012-04-22T08:37:03Z</time>
      </trkpt>
      <trkpt lat="42.88703" lon="0.17623">
        <ele>2674</ele>
        <time>2012-04-22T08:37:37Z</time>
      </trkpt>
      <trkpt lat="42.88702" lon="0.17624">
        <ele>2673</ele>
        <time>2012-04-22T08:38:22Z</time>
      </trkpt>
      <trkpt lat="42.88702" lon="0.17625">
        <ele>2673</ele>
        <time>2012-04-22T08:38:28Z</time>
      </trkpt>
      <trkpt lat="42.88705" lon="0.17628">
        <ele>2672</ele>
        <time>2012-04-22T08:38:43Z</time>
      </trkpt>
      <trkpt lat="42.88709" lon="0.1763">
        <ele>2669</ele>
        <time>2012-04-22T08:38:49Z</time>
      </trkpt>
      <trkpt lat="42.88711" lon="0.17633">
        <ele>2667</ele>
        <time>2012-04-22T08:39:07Z</time>
      </trkpt>
      <trkpt lat="42.88712" lon="0.17637">
        <ele>2665</ele>
        <time>2012-04-22T08:39:20Z</time>
      </trkpt>
      <trkpt lat="42.88726" lon="0.17642">
        <ele>2656</ele>
        <time>2012-04-22T08:39:30Z</time>
      </trkpt>
      <trkpt lat="42.88728" lon="0.17647">
        <ele>2652</ele>
        <time>2012-04-22T08:39:40Z</time>
      </trkpt>
      <trkpt lat="42.88728" lon="0.17647">
        <ele>2652</ele>
        <time>2012-04-22T08:39:53Z</time>
      </trkpt>
      <trkpt lat="42.88745" lon="0.17646">
        <ele>2642</ele>
        <time>2012-04-22T08:40:02Z</time>
      </trkpt>
      <trkpt lat="42.88764" lon="0.17638">
        <ele>2630</ele>
        <time>2012-04-22T08:40:09Z</time>
      </trkpt>
      <trkpt lat="42.88784" lon="0.17632">
        <ele>2614</ele>
        <time>2012-04-22T08:40:15Z</time>
      </trkpt>
      <trkpt lat="42.88788" lon="0.17613">
        <ele>2606</ele>
        <time>2012-04-22T08:40:18Z</time>
      </trkpt>
      <trkpt lat="42.88811" lon="0.17593">
        <ele>2588</ele>
        <time>2012-04-22T08:40:26Z</time>
      </trkpt>
      <trkpt lat="42.88821" lon="0.17577">
        <ele>2576</ele>
        <time>2012-04-22T08:40:32Z</time>
      </trkpt>
      <trkpt lat="42.88821" lon="0.17577">
        <ele>2576</ele>
        <time>2012-04-22T08:40:35Z</time>
      </trkpt>
      <trkpt lat="42.88832" lon="0.17582">
        <ele>2575</ele>
        <time>2012-04-22T08:40:39Z</time>
      </trkpt>
      <trkpt lat="42.88837" lon="0.17595">
        <ele>2571</ele>
        <time>2012-04-22T08:40:43Z</time>
      </trkpt>
      <trkpt lat="42.88845" lon="0.17594">
        <ele>2566</ele>
        <time>2012-04-22T08:40:52Z</time>
      </trkpt>
      <trkpt lat="42.88845" lon="0.17593">
        <ele>2566</ele>
        <time>2012-04-22T08:41:34Z</time>
      </trkpt>
      <trkpt lat="42.88845" lon="0.17594">
        <ele>2565</ele>
        <time>2012-04-22T08:42:01Z</time>
      </trkpt>
      <trkpt lat="42.88845" lon="0.17594">
        <ele>2564</ele>
        <time>2012-04-22T08:43:08Z</time>
      </trkpt>
      <trkpt lat="42.88844" lon="0.17594">
        <ele>2563</ele>
        <time>2012-04-22T08:43:47Z</time>
      </trkpt>
      <trkpt lat="42.88848" lon="0.17579">
        <ele>2560</ele>
        <time>2012-04-22T08:44:57Z</time>
      </trkpt>
      <trkpt lat="42.8885" lon="0.17568">
        <ele>2559</ele>
        <time>2012-04-22T08:44:59Z</time>
      </trkpt>
      <trkpt lat="42.88864" lon="0.1755">
        <ele>2553</ele>
        <time>2012-04-22T08:45:03Z</time>
      </trkpt>
      <trkpt lat="42.88871" lon="0.17524">
        <ele>2546</ele>
        <time>2012-04-22T08:45:16Z</time>
      </trkpt>
      <trkpt lat="42.88871" lon="0.17524">
        <ele>2546</ele>
        <time>2012-04-22T08:45:30Z</time>
      </trkpt>
      <trkpt lat="42.88877" lon="0.17516">
        <ele>2544</ele>
        <time>2012-04-22T08:45:35Z</time>
      </trkpt>
      <trkpt lat="42.88903" lon="0.17513">
        <ele>2537</ele>
        <time>2012-04-22T08:45:43Z</time>
      </trkpt>
      <trkpt lat="42.88923" lon="0.17494">
        <ele>2530</ele>
        <time>2012-04-22T08:45:50Z</time>
      </trkpt>
      <trkpt lat="42.8894" lon="0.1749">
        <ele>2523</ele>
        <time>2012-04-22T08:45:56Z</time>
      </trkpt>
      <trkpt lat="42.88944" lon="0.17508">
        <ele>2520</ele>
        <time>2012-04-22T08:45:59Z</time>
      </trkpt>
      <trkpt lat="42.8895" lon="0.17537">
        <ele>2515</ele>
        <time>2012-04-22T08:46:07Z</time>
      </trkpt>
      <trkpt lat="42.8896" lon="0.17536">
        <ele>2513</ele>
        <time>2012-04-22T08:46:10Z</time>
      </trkpt>
      <trkpt lat="42.88983" lon="0.17557">
        <ele>2501</ele>
        <time>2012-04-22T08:46:17Z</time>
      </trkpt>
      <trkpt lat="42.88992" lon="0.17605">
        <ele>2488</ele>
        <time>2012-04-22T08:46:23Z</time>
      </trkpt>
      <trkpt lat="42.88992" lon="0.17626">
        <ele>2483</ele>
        <time>2012-04-22T08:46:26Z</time>
      </trkpt>
      <trkpt lat="42.88997" lon="0.17647">
        <ele>2477</ele>
        <time>2012-04-22T08:46:37Z</time>
      </trkpt>
      <trkpt lat="42.88997" lon="0.17647">
        <ele>2477</ele>
        <time>2012-04-22T08:47:13Z</time>
      </trkpt>
      <trkpt lat="42.88997" lon="0.17647">
        <ele>2477</ele>
        <time>2012-04-22T08:47:20Z</time>
      </trkpt>
      <trkpt lat="42.89024" lon="0.17658">
        <ele>2475</ele>
        <time>2012-04-22T08:47:37Z</time>
      </trkpt>
      <trkpt lat="42.89039" lon="0.17661">
        <ele>2468</ele>
        <time>2012-04-22T08:47:45Z</time>
      </trkpt>
      <trkpt lat="42.8904" lon="0.17661">
        <ele>2468</ele>
        <time>2012-04-22T08:47:54Z</time>
      </trkpt>
      <trkpt lat="42.8904" lon="0.17667">
        <ele>2467</ele>
        <time>2012-04-22T08:47:58Z</time>
      </trkpt>
      <trkpt lat="42.89053" lon="0.17672">
        <ele>2460</ele>
        <time>2012-04-22T08:48:07Z</time>
      </trkpt>
      <trkpt lat="42.89065" lon="0.1768">
        <ele>2450</ele>
        <time>2012-04-22T08:48:15Z</time>
      </trkpt>
      <trkpt lat="42.89069" lon="0.17676">
        <ele>2446</ele>
        <time>2012-04-22T08:48:17Z</time>
      </trkpt>
      <trkpt lat="42.89078" lon="0.17677">
        <ele>2439</ele>
        <time>2012-04-22T08:48:22Z</time>
      </trkpt>
      <trkpt lat="42.89089" lon="0.17676">
        <ele>2432</ele>
        <time>2012-04-22T08:48:27Z</time>
      </trkpt>
      <trkpt lat="42.89108" lon="0.17706">
        <ele>2425</ele>
        <time>2012-04-22T08:48:32Z</time>
      </trkpt>
      <trkpt lat="42.89143" lon="0.17733">
        <ele>2415</ele>
        <time>2012-04-22T08:48:40Z</time>
      </trkpt>
      <trkpt lat="42.8917" lon="0.17731">
        <ele>2406</ele>
        <time>2012-04-22T08:48:51Z</time>
      </trkpt>
      <trkpt lat="42.89201" lon="0.17733">
        <ele>2401</ele>
        <time>2012-04-22T08:49:12Z</time>
      </trkpt>
      <trkpt lat="42.89211" lon="0.17736">
        <ele>2399</ele>
        <time>2012-04-22T08:49:16Z</time>
      </trkpt>
      <trkpt lat="42.89227" lon="0.17728">
        <ele>2389</ele>
        <time>2012-04-22T08:49:23Z</time>
      </trkpt>
      <trkpt lat="42.89235" lon="0.17732">
        <ele>2387</ele>
        <time>2012-04-22T08:49:25Z</time>
      </trkpt>
      <trkpt lat="42.89261" lon="0.17741">
        <ele>2379</ele>
        <time>2012-04-22T08:49:31Z</time>
      </trkpt>
      <trkpt lat="42.89291" lon="0.17768">
        <ele>2372</ele>
        <time>2012-04-22T08:49:47Z</time>
      </trkpt>
      <trkpt lat="42.89292" lon="0.17769">
        <ele>2370</ele>
        <time>2012-04-22T08:50:12Z</time>
      </trkpt>
      <trkpt lat="42.89291" lon="0.17769">
        <ele>2370</ele>
        <time>2012-04-22T08:50:34Z</time>
      </trkpt>
      <trkpt lat="42.89292" lon="0.17771">
        <ele>2370</ele>
        <time>2012-04-22T08:51:03Z</time>
      </trkpt>
      <trkpt lat="42.89306" lon="0.17787">
        <ele>2362</ele>
        <time>2012-04-22T08:51:12Z</time>
      </trkpt>
      <trkpt lat="42.8932" lon="0.17808">
        <ele>2350</ele>
        <time>2012-04-22T08:51:19Z</time>
      </trkpt>
      <trkpt lat="42.89322" lon="0.17817">
        <ele>2346</ele>
        <time>2012-04-22T08:51:21Z</time>
      </trkpt>
      <trkpt lat="42.89345" lon="0.17878">
        <ele>2335</ele>
        <time>2012-04-22T08:51:30Z</time>
      </trkpt>
      <trkpt lat="42.8937" lon="0.17889">
        <ele>2332</ele>
        <time>2012-04-22T08:51:35Z</time>
      </trkpt>
      <trkpt lat="42.89383" lon="0.17898">
        <ele>2330</ele>
        <time>2012-04-22T08:51:38Z</time>
      </trkpt>
      <trkpt lat="42.89395" lon="0.17915">
        <ele>2327</ele>
        <time>2012-04-22T08:51:43Z</time>
      </trkpt>
      <trkpt lat="42.89401" lon="0.17934">
        <ele>2326</ele>
        <time>2012-04-22T08:51:57Z</time>
      </trkpt>
      <trkpt lat="42.89407" lon="0.17941">
        <ele>2326</ele>
        <time>2012-04-22T08:52:18Z</time>
      </trkpt>
      <trkpt lat="42.89411" lon="0.17947">
        <ele>2325</ele>
        <time>2012-04-22T08:52:43Z</time>
      </trkpt>
      <trkpt lat="42.8942" lon="0.17976">
        <ele>2323</ele>
        <time>2012-04-22T08:52:48Z</time>
      </trkpt>
      <trkpt lat="42.89422" lon="0.17988">
        <ele>2322</ele>
        <time>2012-04-22T08:52:50Z</time>
      </trkpt>
      <trkpt lat="42.89434" lon="0.1803">
        <ele>2318</ele>
        <time>2012-04-22T08:52:59Z</time>
      </trkpt>
      <trkpt lat="42.89431" lon="0.18038">
        <ele>2316</ele>
        <time>2012-04-22T08:53:01Z</time>
      </trkpt>
      <trkpt lat="42.89414" lon="0.18078">
        <ele>2307</ele>
        <time>2012-04-22T08:53:15Z</time>
      </trkpt>
      <trkpt lat="42.89414" lon="0.18085">
        <ele>2304</ele>
        <time>2012-04-22T08:53:38Z</time>
      </trkpt>
      <trkpt lat="42.89413" lon="0.18092">
        <ele>2301</ele>
        <time>2012-04-22T08:53:54Z</time>
      </trkpt>
      <trkpt lat="42.89416" lon="0.18097">
        <ele>2298</ele>
        <time>2012-04-22T08:54:00Z</time>
      </trkpt>
      <trkpt lat="42.89414" lon="0.18113">
        <ele>2293</ele>
        <time>2012-04-22T08:54:10Z</time>
      </trkpt>
      <trkpt lat="42.89413" lon="0.18113">
        <ele>2292</ele>
        <time>2012-04-22T08:54:15Z</time>
      </trkpt>
      <trkpt lat="42.89425" lon="0.18125">
        <ele>2284</ele>
        <time>2012-04-22T08:54:26Z</time>
      </trkpt>
      <trkpt lat="42.89429" lon="0.1814">
        <ele>2276</ele>
        <time>2012-04-22T08:54:32Z</time>
      </trkpt>
      <trkpt lat="42.89435" lon="0.18149">
        <ele>2266</ele>
        <time>2012-04-22T08:54:41Z</time>
      </trkpt>
      <trkpt lat="42.89435" lon="0.18149">
        <ele>2266</ele>
        <time>2012-04-22T08:55:21Z</time>
      </trkpt>
      <trkpt lat="42.8943" lon="0.18159">
        <ele>2265</ele>
        <time>2012-04-22T08:55:43Z</time>
      </trkpt>
      <trkpt lat="42.89417" lon="0.18178">
        <ele>2260</ele>
        <time>2012-04-22T08:55:51Z</time>
      </trkpt>
      <trkpt lat="42.89424" lon="0.1819">
        <ele>2252</ele>
        <time>2012-04-22T08:55:59Z</time>
      </trkpt>
      <trkpt lat="42.89426" lon="0.18205">
        <ele>2244</ele>
        <time>2012-04-22T08:56:06Z</time>
      </trkpt>
      <trkpt lat="42.89424" lon="0.18208">
        <ele>2243</ele>
        <time>2012-04-22T08:56:07Z</time>
      </trkpt>
      <trkpt lat="42.89418" lon="0.18224">
        <ele>2238</ele>
        <time>2012-04-22T08:56:12Z</time>
      </trkpt>
      <trkpt lat="42.89424" lon="0.1824">
        <ele>2229</ele>
        <time>2012-04-22T08:56:20Z</time>
      </trkpt>
      <trkpt lat="42.89433" lon="0.18257">
        <ele>2219</ele>
        <time>2012-04-22T08:56:28Z</time>
      </trkpt>
      <trkpt lat="42.89438" lon="0.18264">
        <ele>2211</ele>
        <time>2012-04-22T08:56:37Z</time>
      </trkpt>
      <trkpt lat="42.89438" lon="0.18262">
        <ele>2210</ele>
        <time>2012-04-22T08:56:58Z</time>
      </trkpt>
      <trkpt lat="42.8944" lon="0.18268">
        <ele>2209</ele>
        <time>2012-04-22T08:57:02Z</time>
      </trkpt>
      <trkpt lat="42.89437" lon="0.18279">
        <ele>2207</ele>
        <time>2012-04-22T08:57:05Z</time>
      </trkpt>
      <trkpt lat="42.89447" lon="0.18276">
        <ele>2201</ele>
        <time>2012-04-22T08:57:12Z</time>
      </trkpt>
      <trkpt lat="42.89455" lon="0.18301">
        <ele>2194</ele>
        <time>2012-04-22T08:57:21Z</time>
      </trkpt>
      <trkpt lat="42.89466" lon="0.18316">
        <ele>2183</ele>
        <time>2012-04-22T08:57:28Z</time>
      </trkpt>
      <trkpt lat="42.89494" lon="0.18293">
        <ele>2178</ele>
        <time>2012-04-22T08:57:38Z</time>
      </trkpt>
      <trkpt lat="42.89495" lon="0.18292">
        <ele>2179</ele>
        <time>2012-04-22T08:57:52Z</time>
      </trkpt>
      <trkpt lat="42.89511" lon="0.18275">
        <ele>2177</ele>
        <time>2012-04-22T08:58:00Z</time>
      </trkpt>
      <trkpt lat="42.89532" lon="0.18277">
        <ele>2171</ele>
        <time>2012-04-22T08:58:08Z</time>
      </trkpt>
      <trkpt lat="42.89547" lon="0.18261">
        <ele>2167</ele>
        <time>2012-04-22T08:58:11Z</time>
      </trkpt>
      <trkpt lat="42.89577" lon="0.18219">
        <ele>2159</ele>
        <time>2012-04-22T08:58:27Z</time>
      </trkpt>
      <trkpt lat="42.89578" lon="0.18217">
        <ele>2159</ele>
        <time>2012-04-22T08:58:44Z</time>
      </trkpt>
      <trkpt lat="42.89597" lon="0.18194">
        <ele>2154</ele>
        <time>2012-04-22T08:58:51Z</time>
      </trkpt>
      <trkpt lat="42.89619" lon="0.18197">
        <ele>2147</ele>
        <time>2012-04-22T08:58:58Z</time>
      </trkpt>
      <trkpt lat="42.89626" lon="0.18215">
        <ele>2142</ele>
        <time>2012-04-22T08:59:09Z</time>
      </trkpt>
      <trkpt lat="42.89629" lon="0.18218">
        <ele>2142</ele>
        <time>2012-04-22T08:59:14Z</time>
      </trkpt>
      <trkpt lat="42.89642" lon="0.18226">
        <ele>2147</ele>
        <time>2012-04-22T08:59:27Z</time>
      </trkpt>
      <trkpt lat="42.89664" lon="0.18236">
        <ele>2147</ele>
        <time>2012-04-22T08:59:40Z</time>
      </trkpt>
      <trkpt lat="42.89671" lon="0.18238">
        <ele>2146</ele>
        <time>2012-04-22T08:59:44Z</time>
      </trkpt>
      <trkpt lat="42.89712" lon="0.18238">
        <ele>2143</ele>
        <time>2012-04-22T08:59:59Z</time>
      </trkpt>
      <trkpt lat="42.89754" lon="0.18243">
        <ele>2139</ele>
        <time>2012-04-22T09:00:08Z</time>
      </trkpt>
      <trkpt lat="42.89789" lon="0.18265">
        <ele>2134</ele>
        <time>2012-04-22T09:00:15Z</time>
      </trkpt>
      <trkpt lat="42.89793" lon="0.18273">
        <ele>2129</ele>
        <time>2012-04-22T09:00:27Z</time>
      </trkpt>
      <trkpt lat="42.89797" lon="0.18278">
        <ele>2128</ele>
        <time>2012-04-22T09:00:44Z</time>
      </trkpt>
      <trkpt lat="42.89819" lon="0.18299">
        <ele>2125</ele>
        <time>2012-04-22T09:00:57Z</time>
      </trkpt>
      <trkpt lat="42.89819" lon="0.183">
        <ele>2125</ele>
        <time>2012-04-22T09:01:35Z</time>
      </trkpt>
      <trkpt lat="42.8982" lon="0.183">
        <ele>2125</ele>
        <time>2012-04-22T09:02:27Z</time>
      </trkpt>
      <trkpt lat="42.8982" lon="0.183">
        <ele>2125</ele>
        <time>2012-04-22T09:02:55Z</time>
      </trkpt>
      <trkpt lat="42.89837" lon="0.18296">
        <ele>2123</ele>
        <time>2012-04-22T09:03:25Z</time>
      </trkpt>
      <trkpt lat="42.89852" lon="0.18284">
        <ele>2121</ele>
        <time>2012-04-22T09:03:30Z</time>
      </trkpt>
      <trkpt lat="42.89889" lon="0.18303">
        <ele>2111</ele>
        <time>2012-04-22T09:03:40Z</time>
      </trkpt>
      <trkpt lat="42.89896" lon="0.18304">
        <ele>2109</ele>
        <time>2012-04-22T09:03:41Z</time>
      </trkpt>
      <trkpt lat="42.89956" lon="0.18282">
        <ele>2098</ele>
        <time>2012-04-22T09:03:52Z</time>
      </trkpt>
      <trkpt lat="42.8997" lon="0.18287">
        <ele>2095</ele>
        <time>2012-04-22T09:03:56Z</time>
      </trkpt>
      <trkpt lat="42.90004" lon="0.18274">
        <ele>2090</ele>
        <time>2012-04-22T09:04:02Z</time>
      </trkpt>
      <trkpt lat="42.9004" lon="0.18272">
        <ele>2086</ele>
        <time>2012-04-22T09:04:14Z</time>
      </trkpt>
      <trkpt lat="42.90063" lon="0.18244">
        <ele>2082</ele>
        <time>2012-04-22T09:04:23Z</time>
      </trkpt>
      <trkpt lat="42.90065" lon="0.18207">
        <ele>2080</ele>
        <time>2012-04-22T09:04:37Z</time>
      </trkpt>
      <trkpt lat="42.90067" lon="0.18202">
        <ele>2082</ele>
        <time>2012-04-22T09:04:44Z</time>
      </trkpt>
      <trkpt lat="42.90067" lon="0.18199">
        <ele>2082</ele>
        <time>2012-04-22T09:04:48Z</time>
      </trkpt>
      <trkpt lat="42.9007" lon="0.18193">
        <ele>2081</ele>
        <time>2012-04-22T09:04:52Z</time>
      </trkpt>
      <trkpt lat="42.90071" lon="0.18183">
        <ele>2080</ele>
        <time>2012-04-22T09:04:58Z</time>
      </trkpt>
      <trkpt lat="42.90074" lon="0.18177">
        <ele>2080</ele>
        <time>2012-04-22T09:05:16Z</time>
      </trkpt>
      <trkpt lat="42.90074" lon="0.18177">
        <ele>2080</ele>
        <time>2012-04-22T09:05:38Z</time>
      </trkpt>
      <trkpt lat="42.90075" lon="0.18177">
        <ele>2080</ele>
        <time>2012-04-22T09:05:57Z</time>
      </trkpt>
      <trkpt lat="42.90075" lon="0.18176">
        <ele>2079</ele>
        <time>2012-04-22T09:06:40Z</time>
      </trkpt>
      <trkpt lat="42.90075" lon="0.18176">
        <ele>2079</ele>
        <time>2012-04-22T09:08:00Z</time>
      </trkpt>
      <trkpt lat="42.90076" lon="0.18175">
        <ele>2076</ele>
        <time>2012-04-22T09:37:45Z</time>
      </trkpt>
      <trkpt lat="42.90076" lon="0.18176">
        <ele>2076</ele>
        <time>2012-04-22T09:38:56Z</time>
      </trkpt>
      <trkpt lat="42.90076" lon="0.18176">
        <ele>2076</ele>
        <time>2012-04-22T09:39:18Z</time>
      </trkpt>
      <trkpt lat="42.90077" lon="0.18176">
        <ele>2076</ele>
        <time>2012-04-22T09:40:02Z</time>
      </trkpt>
      <trkpt lat="42.90076" lon="0.18176">
        <ele>2075</ele>
        <time>2012-04-22T09:40:26Z</time>
      </trkpt>
      <trkpt lat="42.90076" lon="0.18176">
        <ele>2075</ele>
        <time>2012-04-22T09:40:47Z</time>
      </trkpt>
      <trkpt lat="42.90076" lon="0.18176">
        <ele>2076</ele>
        <time>2012-04-22T09:41:19Z</time>
      </trkpt>
      <trkpt lat="42.90077" lon="0.18175">
        <ele>2076</ele>
        <time>2012-04-22T09:42:09Z</time>
      </trkpt>
      <trkpt lat="42.90077" lon="0.18175">
        <ele>2076</ele>
        <time>2012-04-22T09:42:42Z</time>
      </trkpt>
      <trkpt lat="42.90077" lon="0.18174">
        <ele>2077</ele>
        <time>2012-04-22T09:42:49Z</time>
      </trkpt>
      <trkpt lat="42.90095" lon="0.18154">
        <ele>2072</ele>
        <time>2012-04-22T09:42:59Z</time>
      </trkpt>
      <trkpt lat="42.90117" lon="0.18116">
        <ele>2064</ele>
        <time>2012-04-22T09:43:08Z</time>
      </trkpt>
      <trkpt lat="42.90118" lon="0.18109">
        <ele>2061</ele>
        <time>2012-04-22T09:43:19Z</time>
      </trkpt>
      <trkpt lat="42.90118" lon="0.18109">
        <ele>2061</ele>
        <time>2012-04-22T09:43:30Z</time>
      </trkpt>
      <trkpt lat="42.90123" lon="0.18099">
        <ele>2061</ele>
        <time>2012-04-22T09:43:37Z</time>
      </trkpt>
      <trkpt lat="42.90124" lon="0.18095">
        <ele>2060</ele>
        <time>2012-04-22T09:43:50Z</time>
      </trkpt>
      <trkpt lat="42.90132" lon="0.18102">
        <ele>2052</ele>
        <time>2012-04-22T09:44:00Z</time>
      </trkpt>
      <trkpt lat="42.90133" lon="0.18108">
        <ele>2050</ele>
        <time>2012-04-22T09:44:03Z</time>
      </trkpt>
      <trkpt lat="42.90146" lon="0.18095">
        <ele>2042</ele>
        <time>2012-04-22T09:44:12Z</time>
      </trkpt>
      <trkpt lat="42.90147" lon="0.18097">
        <ele>2041</ele>
        <time>2012-04-22T09:44:13Z</time>
      </trkpt>
      <trkpt lat="42.90148" lon="0.18109">
        <ele>2036</ele>
        <time>2012-04-22T09:44:17Z</time>
      </trkpt>
      <trkpt lat="42.90158" lon="0.18103">
        <ele>2032</ele>
        <time>2012-04-22T09:44:21Z</time>
      </trkpt>
      <trkpt lat="42.90165" lon="0.18072">
        <ele>2027</ele>
        <time>2012-04-22T09:44:33Z</time>
      </trkpt>
      <trkpt lat="42.90171" lon="0.18077">
        <ele>2020</ele>
        <time>2012-04-22T09:44:42Z</time>
      </trkpt>
      <trkpt lat="42.90171" lon="0.18078">
        <ele>2018</ele>
        <time>2012-04-22T09:44:53Z</time>
      </trkpt>
      <trkpt lat="42.90182" lon="0.18072">
        <ele>2015</ele>
        <time>2012-04-22T09:44:59Z</time>
      </trkpt>
      <trkpt lat="42.90195" lon="0.18034">
        <ele>2009</ele>
        <time>2012-04-22T09:45:09Z</time>
      </trkpt>
      <trkpt lat="42.90207" lon="0.18052">
        <ele>2002</ele>
        <time>2012-04-22T09:45:16Z</time>
      </trkpt>
      <trkpt lat="42.90211" lon="0.18048">
        <ele>1999</ele>
        <time>2012-04-22T09:45:18Z</time>
      </trkpt>
      <trkpt lat="42.90231" lon="0.18054">
        <ele>1988</ele>
        <time>2012-04-22T09:45:28Z</time>
      </trkpt>
      <trkpt lat="42.9023" lon="0.18048">
        <ele>1985</ele>
        <time>2012-04-22T09:45:38Z</time>
      </trkpt>
      <trkpt lat="42.90231" lon="0.18046">
        <ele>1986</ele>
        <time>2012-04-22T09:45:54Z</time>
      </trkpt>
      <trkpt lat="42.90255" lon="0.18019">
        <ele>1983</ele>
        <time>2012-04-22T09:46:03Z</time>
      </trkpt>
      <trkpt lat="42.90291" lon="0.17992">
        <ele>1975</ele>
        <time>2012-04-22T09:46:14Z</time>
      </trkpt>
      <trkpt lat="42.90291" lon="0.17992">
        <ele>1975</ele>
        <time>2012-04-22T09:46:24Z</time>
      </trkpt>
      <trkpt lat="42.90317" lon="0.17998">
        <ele>1973</ele>
        <time>2012-04-22T09:46:34Z</time>
      </trkpt>
      <trkpt lat="42.90338" lon="0.18">
        <ele>1967</ele>
        <time>2012-04-22T09:46:39Z</time>
      </trkpt>
      <trkpt lat="42.90358" lon="0.17981">
        <ele>1958</ele>
        <time>2012-04-22T09:46:47Z</time>
      </trkpt>
      <trkpt lat="42.90358" lon="0.17982">
        <ele>1956</ele>
        <time>2012-04-22T09:47:14Z</time>
      </trkpt>
      <trkpt lat="42.90358" lon="0.17982">
        <ele>1955</ele>
        <time>2012-04-22T09:48:01Z</time>
      </trkpt>
      <trkpt lat="42.90358" lon="0.17982">
        <ele>1955</ele>
        <time>2012-04-22T09:49:25Z</time>
      </trkpt>
      <trkpt lat="42.90358" lon="0.17982">
        <ele>1954</ele>
        <time>2012-04-22T09:49:30Z</time>
      </trkpt>
      <trkpt lat="42.90364" lon="0.17976">
        <ele>1954</ele>
        <time>2012-04-22T09:49:34Z</time>
      </trkpt>
      <trkpt lat="42.90388" lon="0.17979">
        <ele>1945</ele>
        <time>2012-04-22T09:49:43Z</time>
      </trkpt>
      <trkpt lat="42.90406" lon="0.17971">
        <ele>1933</ele>
        <time>2012-04-22T09:49:50Z</time>
      </trkpt>
      <trkpt lat="42.90422" lon="0.17964">
        <ele>1922</ele>
        <time>2012-04-22T09:49:57Z</time>
      </trkpt>
      <trkpt lat="42.90438" lon="0.17962">
        <ele>1913</ele>
        <time>2012-04-22T09:50:04Z</time>
      </trkpt>
      <trkpt lat="42.90455" lon="0.1796">
        <ele>1904</ele>
        <time>2012-04-22T09:50:11Z</time>
      </trkpt>
      <trkpt lat="42.90472" lon="0.17965">
        <ele>1894</ele>
        <time>2012-04-22T09:50:18Z</time>
      </trkpt>
      <trkpt lat="42.90485" lon="0.17969">
        <ele>1888</ele>
        <time>2012-04-22T09:50:27Z</time>
      </trkpt>
      <trkpt lat="42.90485" lon="0.17971">
        <ele>1886</ele>
        <time>2012-04-22T09:50:42Z</time>
      </trkpt>
      <trkpt lat="42.90494" lon="0.17974">
        <ele>1884</ele>
        <time>2012-04-22T09:50:46Z</time>
      </trkpt>
      <trkpt lat="42.90513" lon="0.17964">
        <ele>1881</ele>
        <time>2012-04-22T09:50:50Z</time>
      </trkpt>
      <trkpt lat="42.90536" lon="0.17953">
        <ele>1878</ele>
        <time>2012-04-22T09:51:03Z</time>
      </trkpt>
      <trkpt lat="42.90541" lon="0.17945">
        <ele>1878</ele>
        <time>2012-04-22T09:51:07Z</time>
      </trkpt>
      <trkpt lat="42.90569" lon="0.17944">
        <ele>1872</ele>
        <time>2012-04-22T09:51:16Z</time>
      </trkpt>
      <trkpt lat="42.90571" lon="0.17942">
        <ele>1870</ele>
        <time>2012-04-22T09:51:29Z</time>
      </trkpt>
      <trkpt lat="42.90572" lon="0.17941">
        <ele>1869</ele>
        <time>2012-04-22T09:51:39Z</time>
      </trkpt>
      <trkpt lat="42.90601" lon="0.17947">
        <ele>1863</ele>
        <time>2012-04-22T09:51:48Z</time>
      </trkpt>
      <trkpt lat="42.90603" lon="0.17949">
        <ele>1861</ele>
        <time>2012-04-22T09:51:53Z</time>
      </trkpt>
      <trkpt lat="42.90606" lon="0.17946">
        <ele>1858</ele>
        <time>2012-04-22T09:52:05Z</time>
      </trkpt>
      <trkpt lat="42.90606" lon="0.17946">
        <ele>1858</ele>
        <time>2012-04-22T09:52:52Z</time>
      </trkpt>
      <trkpt lat="42.90607" lon="0.17944">
        <ele>1858</ele>
        <time>2012-04-22T09:53:59Z</time>
      </trkpt>
      <trkpt lat="42.90626" lon="0.17942">
        <ele>1853</ele>
        <time>2012-04-22T09:54:05Z</time>
      </trkpt>
      <trkpt lat="42.90646" lon="0.17945">
        <ele>1847</ele>
        <time>2012-04-22T09:54:10Z</time>
      </trkpt>
      <trkpt lat="42.9068" lon="0.17937">
        <ele>1836</ele>
        <time>2012-04-22T09:54:20Z</time>
      </trkpt>
      <trkpt lat="42.90697" lon="0.17929">
        <ele>1828</ele>
        <time>2012-04-22T09:54:27Z</time>
      </trkpt>
      <trkpt lat="42.90707" lon="0.17926">
        <ele>1822</ele>
        <time>2012-04-22T09:54:31Z</time>
      </trkpt>
      <trkpt lat="42.90707" lon="0.17922">
        <ele>1821</ele>
        <time>2012-04-22T09:54:51Z</time>
      </trkpt>
      <trkpt lat="42.90708" lon="0.17921">
        <ele>1821</ele>
        <time>2012-04-22T09:54:55Z</time>
      </trkpt>
      <trkpt lat="42.90719" lon="0.17936">
        <ele>1819</ele>
        <time>2012-04-22T09:55:00Z</time>
      </trkpt>
      <trkpt lat="42.90731" lon="0.17962">
        <ele>1813</ele>
        <time>2012-04-22T09:55:11Z</time>
      </trkpt>
      <trkpt lat="42.90739" lon="0.17971">
        <ele>1812</ele>
        <time>2012-04-22T09:55:17Z</time>
      </trkpt>
      <trkpt lat="42.90745" lon="0.17986">
        <ele>1810</ele>
        <time>2012-04-22T09:55:20Z</time>
      </trkpt>
      <trkpt lat="42.90751" lon="0.18006">
        <ele>1807</ele>
        <time>2012-04-22T09:55:23Z</time>
      </trkpt>
      <trkpt lat="42.90757" lon="0.18036">
        <ele>1802</ele>
        <time>2012-04-22T09:55:35Z</time>
      </trkpt>
      <trkpt lat="42.90749" lon="0.18058">
        <ele>1795</ele>
        <time>2012-04-22T09:55:44Z</time>
      </trkpt>
      <trkpt lat="42.90751" lon="0.18058">
        <ele>1794</ele>
        <time>2012-04-22T09:55:48Z</time>
      </trkpt>
      <trkpt lat="42.90771" lon="0.18049">
        <ele>1792</ele>
        <time>2012-04-22T09:55:56Z</time>
      </trkpt>
      <trkpt lat="42.9078" lon="0.18038">
        <ele>1790</ele>
        <time>2012-04-22T09:56:05Z</time>
      </trkpt>
      <trkpt lat="42.90785" lon="0.1804">
        <ele>1789</ele>
        <time>2012-04-22T09:56:09Z</time>
      </trkpt>
      <trkpt lat="42.90788" lon="0.18047">
        <ele>1787</ele>
        <time>2012-04-22T09:56:11Z</time>
      </trkpt>
      <trkpt lat="42.90799" lon="0.18044">
        <ele>1782</ele>
        <time>2012-04-22T09:56:17Z</time>
      </trkpt>
      <trkpt lat="42.90803" lon="0.18046">
        <ele>1782</ele>
        <time>2012-04-22T09:56:35Z</time>
      </trkpt>
      <trkpt lat="42.90808" lon="0.18055">
        <ele>1780</ele>
        <time>2012-04-22T09:56:40Z</time>
      </trkpt>
      <trkpt lat="42.9082" lon="0.18038">
        <ele>1773</ele>
        <time>2012-04-22T09:56:49Z</time>
      </trkpt>
      <trkpt lat="42.90837" lon="0.18046">
        <ele>1766</ele>
        <time>2012-04-22T09:56:59Z</time>
      </trkpt>
      <trkpt lat="42.90842" lon="0.18063">
        <ele>1762</ele>
        <time>2012-04-22T09:57:03Z</time>
      </trkpt>
      <trkpt lat="42.90862" lon="0.18064">
        <ele>1755</ele>
        <time>2012-04-22T09:57:12Z</time>
      </trkpt>
      <trkpt lat="42.90871" lon="0.18076">
        <ele>1752</ele>
        <time>2012-04-22T09:57:18Z</time>
      </trkpt>
      <trkpt lat="42.90875" lon="0.18071">
        <ele>1751</ele>
        <time>2012-04-22T09:57:22Z</time>
      </trkpt>
      <trkpt lat="42.9088" lon="0.18051">
        <ele>1748</ele>
        <time>2012-04-22T09:57:29Z</time>
      </trkpt>
      <trkpt lat="42.90896" lon="0.18026">
        <ele>1742</ele>
        <time>2012-04-22T09:57:39Z</time>
      </trkpt>
      <trkpt lat="42.90902" lon="0.18024">
        <ele>1741</ele>
        <time>2012-04-22T09:57:44Z</time>
      </trkpt>
      <trkpt lat="42.9094" lon="0.18036">
        <ele>1736</ele>
        <time>2012-04-22T09:58:00Z</time>
      </trkpt>
      <trkpt lat="42.90944" lon="0.18038">
        <ele>1735</ele>
        <time>2012-04-22T09:58:04Z</time>
      </trkpt>
      <trkpt lat="42.90958" lon="0.18018">
        <ele>1734</ele>
        <time>2012-04-22T09:58:16Z</time>
      </trkpt>
      <trkpt lat="42.90961" lon="0.18013">
        <ele>1734</ele>
        <time>2012-04-22T09:58:29Z</time>
      </trkpt>
      <trkpt lat="42.90961" lon="0.18013">
        <ele>1734</ele>
        <time>2012-04-22T09:58:50Z</time>
      </trkpt>
      <trkpt lat="42.90961" lon="0.18013">
        <ele>1733</ele>
        <time>2012-04-22T09:59:11Z</time>
      </trkpt>
      <trkpt lat="42.90961" lon="0.18014">
        <ele>1732</ele>
        <time>2012-04-22T09:59:25Z</time>
      </trkpt>
      <trkpt lat="42.90965" lon="0.18012">
        <ele>1733</ele>
        <time>2012-04-22T09:59:54Z</time>
      </trkpt>
      <trkpt lat="42.90967" lon="0.18013">
        <ele>1733</ele>
        <time>2012-04-22T10:00:01Z</time>
      </trkpt>
      <trkpt lat="42.90966" lon="0.18015">
        <ele>1733</ele>
        <time>2012-04-22T10:00:15Z</time>
      </trkpt>
      <trkpt lat="42.90966" lon="0.18015">
        <ele>1733</ele>
        <time>2012-04-22T10:01:16Z</time>
      </trkpt>
      <trkpt lat="42.90966" lon="0.18013">
        <ele>1733</ele>
        <time>2012-04-22T10:05:26Z</time>
      </trkpt>
      <trkpt lat="42.90966" lon="0.18013">
        <ele>1733</ele>
        <time>2012-04-22T10:05:41Z</time>
      </trkpt>
    </trkseg>
  </trk>
</gpx>